Observation data for Odell on 01/18/2019      Previous  Date  Next       Current Mesonet Observations  Soil Data  Daily Summary Page  Observations in Plain Language
KOD1 180600Z 14008KT 05/04 A3004 RMK A01 T00500036  RH  091%=      5-min Rain = 0
KOD1 180601Z 14008KT 05/04 A3004 RMK A01 T00500036  RH  091%=      5-min Rain = 0
KOD1 180602Z 14009KT 05/04 A3004 RMK A01 T00500036  RH  091%=      5-min Rain = 0
KOD1 180603Z 14009KT 05/04 A3004 RMK A01 T00500037  RH  091%=      5-min Rain = 0
KOD1 180604Z 14009KT 05/04 A3003 RMK A01 T00500037  RH  091%=      5-min Rain = 0
KOD1 180605Z 14009KT 05/04 A3003 RMK A01 T00500037  RH  091%=      5-min Rain = 0
KOD1 180606Z 13009KT 05/04 A3003 RMK A01 T00510038  RH  091%=      5-min Rain = 0
KOD1 180607Z 13010KT 05/04 A3003 RMK A01 T00510038  RH  091%=      5-min Rain = 0
KOD1 180608Z 13010KT 05/04 A3003 RMK A01 T00510038  RH  091%=      5-min Rain = 0
KOD1 180609Z 13010KT 05/04 A3003 RMK A01 T00510038  RH  091%=      5-min Rain = 0
KOD1 180610Z 13010KT 05/04 A3003 RMK A01 T00520038  RH  091%=      5-min Rain = 0
KOD1 180611Z 13011KT 05/04 A3003 RMK A01 T00520038  RH  091%=      5-min Rain = 0
KOD1 180612Z 14010KT 05/04 A3003 RMK A01 T00520038  RH  090%=      5-min Rain = 0
KOD1 180613Z 14010KT 05/04 A3002 RMK A01 T00520038  RH  090%=      5-min Rain = 0
KOD1 180614Z 14009KT 05/04 A3002 RMK A01 T00520038  RH  091%=      5-min Rain = 0
KOD1 180615Z 14010KT 05/04 A3002 RMK A01 T00530038  RH  091%=      5-min Rain = 0
KOD1 180616Z 13010KT 05/04 A3002 RMK A01 T00530039  RH  090%=      5-min Rain = 0
KOD1 180617Z 14009KT 05/04 A3002 RMK A01 T00540039  RH  090%=      5-min Rain = 0
KOD1 180618Z 13010KT 05/04 A3003 RMK A01 T00530038  RH  090%=      5-min Rain = 0
KOD1 180619Z 14010KT 05/04 A3002 RMK A01 T00530038  RH  090%=      5-min Rain = 0
KOD1 180620Z 14009KT 05/04 A3002 RMK A01 T00530038  RH  090%=      5-min Rain = 0
KOD1 180621Z 14009KT 05/04 A3003 RMK A01 T00530038  RH  090%=      5-min Rain = 0
KOD1 180622Z 14010KT 05/04 A3003 RMK A01 T00530037  RH  090%=      5-min Rain = 0
KOD1 180623Z 14008KT 05/04 A3003 RMK A01 T00530037  RH  090%=      5-min Rain = 0
KOD1 180624Z 14008KT 05/04 A3003 RMK A01 T00530037  RH  090%=      5-min Rain = 0
KOD1 180625Z 14008KT 05/04 A3003 RMK A01 T00520037  RH  090%=      5-min Rain = 0
KOD1 180626Z 14008KT 05/04 A3003 RMK A01 T00520037  RH  090%=      5-min Rain = 0
KOD1 180627Z 13009KT 05/04 A3003 RMK A01 T00520037  RH  090%=      5-min Rain = 0
KOD1 180628Z 13009KT 05/04 A3003 RMK A01 T00520037  RH  090%=      5-min Rain = 0
KOD1 180629Z 13009KT 05/04 A3003 RMK A01 T00520037  RH  090%=      5-min Rain = 0
KOD1 180630Z 13009KT 05/04 A3003 RMK A01 T00520037  RH  090%=      5-min Rain = 0
KOD1 180631Z 13009KT 05/04 A3002 RMK A01 T00520037  RH  090%=      5-min Rain = 0
KOD1 180632Z 13008KT 05/04 A3002 RMK A01 T00520037  RH  090%=      5-min Rain = 0
KOD1 180633Z 13008KT 05/04 A3002 RMK A01 T00520037  RH  090%=      5-min Rain = 0
KOD1 180634Z 13009KT 05/04 A3002 RMK A01 T00520037  RH  090%=      5-min Rain = 0
KOD1 180635Z 13008KT 05/04 A3002 RMK A01 T00520038  RH  090%=      5-min Rain = 0
KOD1 180636Z 12008KT 05/04 A3002 RMK A01 T00520037  RH  090%=      5-min Rain = 0
KOD1 180637Z 12008KT 05/04 A3002 RMK A01 T00520037  RH  090%=      5-min Rain = 0
KOD1 180638Z 12008KT 05/04 A3002 RMK A01 T00520038  RH  090%=      5-min Rain = 0
KOD1 180639Z 12009KT 05/04 A3002 RMK A01 T00520037  RH  090%=      5-min Rain = 0
KOD1 180640Z 13009KT 05/04 A3002 RMK A01 T00520037  RH  090%=      5-min Rain = 0
KOD1 180641Z 12008KT 05/04 A3002 RMK A01 T00530038  RH  090%=      5-min Rain = 0
KOD1 180642Z 13009KT 05/04 A3002 RMK A01 T00530038  RH  090%=      5-min Rain = 0
KOD1 180643Z 13009KT 05/04 A3002 RMK A01 T00540038  RH  090%=      5-min Rain = 0
KOD1 180644Z 13009KT 05/04 A3002 RMK A01 T00540038  RH  090%=      5-min Rain = 0
KOD1 180645Z 13009KT 05/04 A3002 RMK A01 T00540038  RH  090%=      5-min Rain = 0
KOD1 180646Z 13008KT 05/04 A3002 RMK A01 T00530037  RH  089%=      5-min Rain = 0
KOD1 180647Z 13008KT 05/04 A3002 RMK A01 T00530037  RH  090%=      5-min Rain = 0
KOD1 180648Z 13007KT 05/04 A3002 RMK A01 T00530037  RH  090%=      5-min Rain = 0
KOD1 180649Z 13008KT 05/04 A3001 RMK A01 T00520037  RH  090%=      5-min Rain = 0
KOD1 180650Z 13008KT 05/04 A3001 RMK A01 T00520037  RH  090%=      5-min Rain = 0
KOD1 180651Z 13008KT 05/04 A3001 RMK A01 T00520037  RH  090%=      5-min Rain = 0
KOD1 180652Z 13008KT 05/04 A3002 RMK A01 T00520037  RH  090%=      5-min Rain = 0
KOD1 180653Z 13008KT 05/04 A3002 RMK A01 T00520037  RH  090%=      5-min Rain = 0
KOD1 180654Z 13008KT 05/04 A3002 RMK A01 T00520038  RH  090%=      5-min Rain = 0
KOD1 180655Z 13007KT 05/04 A3002 RMK A01 T00520038  RH  090%=      5-min Rain = 0
KOD1 180656Z 14008KT 05/04 A3002 RMK A01 T00520038  RH  090%=      5-min Rain = 0
KOD1 180657Z 13006KT 05/04 A3002 RMK A01 T00520037  RH  090%=      5-min Rain = 0
KOD1 180658Z 13007KT 05/04 A3002 RMK A01 T00520037  RH  090%=      5-min Rain = 0
KOD1 180659Z 13006KT 05/04 A3002 RMK A01 T00510036  RH  090%=      5-min Rain = 0
KOD1 180700Z 13006KT 05/04 A3002 RMK A01 T00510036  RH  090%=      5-min Rain = 0
KOD1 180701Z 13006KT 05/04 A3002 RMK A01 T00510036  RH  090%=      5-min Rain = 0
KOD1 180702Z 13006KT 05/04 A3002 RMK A01 T00500036  RH  090%=      5-min Rain = 0
KOD1 180703Z 12006KT 05/04 A3001 RMK A01 T00500036  RH  091%=      5-min Rain = 0
KOD1 180704Z 11005KT 05/04 A3001 RMK A01 T00500035  RH  091%=      5-min Rain = 0
KOD1 180705Z 11005KT 05/04 A3001 RMK A01 T00490035  RH  091%=      5-min Rain = 0
KOD1 180706Z 11006KT 05/04 A3001 RMK A01 T00490035  RH  091%=      5-min Rain = 0
KOD1 180707Z 11006KT 05/04 A3001 RMK A01 T00480035  RH  091%=      5-min Rain = 0
KOD1 180708Z 11006KT 05/04 A3001 RMK A01 T00480035  RH  091%=      5-min Rain = 0
KOD1 180709Z 11007KT 05/04 A3001 RMK A01 T00490036  RH  092%=      5-min Rain = 0
KOD1 180710Z 11006KT 05/04 A3001 RMK A01 T00490036  RH  091%=      5-min Rain = 0
KOD1 180711Z 12007KT 05/04 A3001 RMK A01 T00490036  RH  091%=      5-min Rain = 0
KOD1 180712Z 12007KT 05/04 A3001 RMK A01 T00490036  RH  091%=      5-min Rain = 0
KOD1 180713Z 12007KT 05/04 A3001 RMK A01 T00490036  RH  091%=      5-min Rain = 0
KOD1 180714Z 12007KT 05/04 A3001 RMK A01 T00490036  RH  091%=      5-min Rain = 0
KOD1 180715Z 12006KT 05/04 A3001 RMK A01 T00500037  RH  091%=      5-min Rain = 0
KOD1 180716Z 13006KT 05/04 A3001 RMK A01 T00490036  RH  091%=      5-min Rain = 0
KOD1 180717Z 13006KT 05/04 A3001 RMK A01 T00490036  RH  091%=      5-min Rain = 0
KOD1 180718Z 13008KT 05/04 A30 RMK A01 T00490036  RH  091%=      5-min Rain = 0
KOD1 180719Z 13007KT 05/04 A30 RMK A01 T00500037  RH  092%=      5-min Rain = 0
KOD1 180720Z 13009KT 05/04 A30 RMK A01 T00500037  RH  091%=      5-min Rain = 0
KOD1 180721Z 12008KT 05/04 A30 RMK A01 T00500037  RH  091%=      5-min Rain = 0
KOD1 180722Z 12007KT 05/04 A30 RMK A01 T00500036  RH  091%=      5-min Rain = 0
KOD1 180723Z 12008KT 05/04 A30 RMK A01 T00490036  RH  091%=      5-min Rain = 0
KOD1 180724Z 12009KT 05/04 A30 RMK A01 T00490036  RH  091%=      5-min Rain = 0
KOD1 180725Z 12009KT 05/04 A30 RMK A01 T00490037  RH  092%=      5-min Rain = 0
KOD1 180726Z 12007KT 05/04 A30 RMK A01 T00490036  RH  091%=      5-min Rain = 0
KOD1 180727Z 12007KT 05/04 A2999 RMK A01 T00490035  RH  091%=      5-min Rain = 0
KOD1 180728Z 12008KT 05/03 A2999 RMK A01 T00480034  RH  091%=      5-min Rain = 0
KOD1 180729Z 11007KT 05/03 A2999 RMK A01 T00480034  RH  091%=      5-min Rain = 0
KOD1 180730Z 11007KT 05/03 A2999 RMK A01 T00470034  RH  091%=      5-min Rain = 0
KOD1 180731Z 11007KT 05/03 A2999 RMK A01 T00460034  RH  091%=      5-min Rain = 0
KOD1 180732Z 11007KT 05/03 A2999 RMK A01 T00450033  RH  091%=      5-min Rain = 0
KOD1 180733Z 11007KT 05/03 A2999 RMK A01 T00450032  RH  091%=      5-min Rain = 0
KOD1 180734Z 10007KT 04/03 A2999 RMK A01 T00440032  RH  092%=      5-min Rain = 0
KOD1 180735Z 11007KT 04/03 A2999 RMK A01 T00440032  RH  092%=      5-min Rain = 0
KOD1 180736Z 10007KT 04/03 A2999 RMK A01 T00430032  RH  092%=      5-min Rain = 0
KOD1 180737Z 10007KT 04/03 A2999 RMK A01 T00430031  RH  092%=      5-min Rain = 0
KOD1 180738Z 10006KT 04/03 A2999 RMK A01 T00420031  RH  093%=      5-min Rain = 0
KOD1 180739Z 10007KT 04/03 A2999 RMK A01 T00420032  RH  093%=      5-min Rain = 0
KOD1 180740Z 10006KT 04/03 A2999 RMK A01 T00420032  RH  093%=      5-min Rain = 0
KOD1 180741Z 10005KT 04/03 A2999 RMK A01 T00420032  RH  093%=      5-min Rain = 0
KOD1 180742Z 10005KT 04/03 A2999 RMK A01 T00420031  RH  093%=      5-min Rain = 0
KOD1 180743Z 10005KT 04/03 A2999 RMK A01 T00420031  RH  093%=      5-min Rain = 0
KOD1 180744Z 11004KT 04/03 A2999 RMK A01 T00410031  RH  093%=      5-min Rain = 0
KOD1 180745Z 11006KT 04/03 A2999 RMK A01 T00410031  RH  093%=      5-min Rain = 0
KOD1 180746Z 11006KT 04/03 A2999 RMK A01 T00410032  RH  093%=      5-min Rain = 0
KOD1 180747Z 11005KT 04/03 A2999 RMK A01 T00410032  RH  093%=      5-min Rain = 0
KOD1 180748Z 11007KT 04/03 A2999 RMK A01 T00410031  RH  093%=      5-min Rain = 0
KOD1 180749Z 11006KT 04/03 A2998 RMK A01 T00410031  RH  093%=      5-min Rain = 0
KOD1 180750Z 11005KT 04/03 A2998 RMK A01 T00400030  RH  093%=      5-min Rain = 0
KOD1 180751Z 10005KT 04/03 A2998 RMK A01 T00400030  RH  093%=      5-min Rain = 0
KOD1 180752Z 11005KT 04/03 A2998 RMK A01 T00390029  RH  093%=      5-min Rain = 0
KOD1 180753Z 11005KT 04/03 A2998 RMK A01 T00390029  RH  093%=      5-min Rain = 0
KOD1 180754Z 11005KT 04/03 A2998 RMK A01 T00380029  RH  094%=      5-min Rain = 0
KOD1 180755Z 12005KT 04/03 A2998 RMK A01 T00380028  RH  094%=      5-min Rain = 0
KOD1 180756Z 12004KT 04/03 A2998 RMK A01 T00380028  RH  094%=      5-min Rain = 0
KOD1 180757Z 11005KT 04/03 A2998 RMK A01 T00370028  RH  094%=      5-min Rain = 0
KOD1 180758Z 12005KT 04/03 A2998 RMK A01 T00370029  RH  094%=      5-min Rain = 0
KOD1 180759Z 12004KT 04/03 A2998 RMK A01 T00370029  RH  094%=      5-min Rain = 0
KOD1 180800Z 12004KT 04/03 A2998 RMK A01 T00370028  RH  094%=      5-min Rain = 0
KOD1 180801Z 11005KT 04/03 A2998 RMK A01 T00370028  RH  094%=      5-min Rain = 0
KOD1 180802Z 10005KT 04/03 A2998 RMK A01 T00370028  RH  094%=      5-min Rain = 0
KOD1 180803Z 10004KT 04/03 A2999 RMK A01 T00360028  RH  094%=      5-min Rain = 0
KOD1 180804Z 11004KT 04/03 A2999 RMK A01 T00360027  RH  094%=      5-min Rain = 0
KOD1 180805Z 11005KT 04/03 A2999 RMK A01 T00350027  RH  094%=      5-min Rain = 0
KOD1 180806Z 12004KT 04/03 A2999 RMK A01 T00350027  RH  094%=      5-min Rain = 0
KOD1 180807Z 11005KT 04/03 A2999 RMK A01 T00350026  RH  094%=      5-min Rain = 0
KOD1 180808Z 12004KT 03/03 A2999 RMK A01 T00340026  RH  095%=      5-min Rain = 0
KOD1 180809Z 12004KT 03/03 A2999 RMK A01 T00340026  RH  095%=      5-min Rain = 0
KOD1 180810Z 12004KT 03/03 A2999 RMK A01 T00340026  RH  095%=      5-min Rain = 0
KOD1 180811Z 12004KT 03/03 A2999 RMK A01 T00340026  RH  095%=      5-min Rain = 0
KOD1 180812Z 11004KT 03/03 A2999 RMK A01 T00340026  RH  095%=      5-min Rain = 0
KOD1 180813Z 11004KT 03/03 A2999 RMK A01 T00330026  RH  095%=      5-min Rain = 0
KOD1 180814Z 11004KT 03/03 A2999 RMK A01 T00330025  RH  095%=      5-min Rain = 0
KOD1 180815Z 10004KT 03/03 A2998 RMK A01 T00330025  RH  095%=      5-min Rain = 0
KOD1 180816Z 10004KT 03/03 A2998 RMK A01 T00320025  RH  095%=      5-min Rain = 0
KOD1 180817Z 09004KT 03/03 A2998 RMK A01 T00320025  RH  095%=      5-min Rain = 0
KOD1 180818Z 10005KT 03/02 A2998 RMK A01 T00320024  RH  095%=      5-min Rain = 0
KOD1 180819Z 10005KT 03/03 A2998 RMK A01 T00320025  RH  095%=      5-min Rain = 0
KOD1 180820Z 09004KT 03/03 A2998 RMK A01 T00330026  RH  096%=      5-min Rain = 0
KOD1 180821Z 10004KT 03/03 A2998 RMK A01 T00320026  RH  095%=      5-min Rain = 0
KOD1 180822Z 09004KT 03/03 A2998 RMK A01 T00320025  RH  095%=      5-min Rain = 0
KOD1 180823Z 10004KT 03/02 A2998 RMK A01 T00310024  RH  095%=      5-min Rain = 0
KOD1 180824Z 10005KT 03/02 A2998 RMK A01 T00310024  RH  095%=      5-min Rain = 0
KOD1 180825Z 11005KT 03/02 A2998 RMK A01 T00310024  RH  095%=      5-min Rain = 0
KOD1 180826Z 12006KT 03/02 A2998 RMK A01 T00310024  RH  096%=      5-min Rain = 0
KOD1 180827Z 12006KT 03/03 A2998 RMK A01 T00310025  RH  096%=      5-min Rain = 0
KOD1 180828Z 11006KT 03/03 A2998 RMK A01 T00320026  RH  096%=      5-min Rain = 0
KOD1 180829Z 12006KT 03/03 A2998 RMK A01 T00320026  RH  096%=      5-min Rain = 0
KOD1 180830Z 12006KT 03/03 A2998 RMK A01 T00320026  RH  096%=      5-min Rain = 0
KOD1 180831Z 12005KT 03/03 A2998 RMK A01 T00330027  RH  096%=      5-min Rain = 0
KOD1 180832Z 12006KT 03/03 A2998 RMK A01 T00330027  RH  096%=      5-min Rain = 0
KOD1 180833Z 12005KT 03/03 A2998 RMK A01 T00330027  RH  096%=      5-min Rain = 0
KOD1 180834Z 13006KT 03/03 A2998 RMK A01 T00320026  RH  096%=      5-min Rain = 0
KOD1 180835Z 12006KT 03/03 A2998 RMK A01 T00330027  RH  096%=      5-min Rain = 0
KOD1 180836Z 12005KT 03/03 A2998 RMK A01 T00340029  RH  096%=      5-min Rain = 0
KOD1 180837Z 13006KT 03/03 A2998 RMK A01 T00340029  RH  096%=      5-min Rain = 0
KOD1 180838Z 12006KT 04/03 A2998 RMK A01 T00350030  RH  096%=      5-min Rain = 0
KOD1 180839Z 13006KT 04/03 A2998 RMK A01 T00360031  RH  096%=      5-min Rain = 0
KOD1 180840Z 13008KT 04/03 A2998 RMK A01 T00370032  RH  096%=      5-min Rain = 0
KOD1 180841Z 13008KT 04/03 A2998 RMK A01 T00380034  RH  097%=      5-min Rain = 0
KOD1 180842Z 13009KT 04/04 A2998 RMK A01 T00400036  RH  097%=      5-min Rain = 0
KOD1 180843Z 13009KT 04/04 A2997 RMK A01 T00410037  RH  097%=      5-min Rain = 0
KOD1 180844Z 13008KT 04/04 A2997 RMK A01 T00420037  RH  096%=      5-min Rain = 0
KOD1 180845Z 13009KT 04/04 A2997 RMK A01 T00430037  RH  096%=      5-min Rain = 0
KOD1 180846Z 13009KT 04/04 A2997 RMK A01 T00430037  RH  096%=      5-min Rain = 0
KOD1 180847Z 13009KT 04/04 A2997 RMK A01 T00430037  RH  096%=      5-min Rain = 0
KOD1 180848Z 13009KT 04/04 A2997 RMK A01 T00440037  RH  095%=      5-min Rain = 0
KOD1 180849Z 13010KT 04/04 A2997 RMK A01 T00440036  RH  095%=      5-min Rain = 0
KOD1 180850Z 13010KT 04/04 A2997 RMK A01 T00440036  RH  095%=      5-min Rain = 0
KOD1 180851Z 13010KT 04/04 A2996 RMK A01 T00440036  RH  095%=      5-min Rain = 0
KOD1 180852Z 13009KT 04/04 A2996 RMK A01 T00430035  RH  095%=      5-min Rain = 0
KOD1 180853Z 13010KT 04/04 A2996 RMK A01 T00430035  RH  095%=      5-min Rain = 0
KOD1 180854Z 13009KT 04/04 A2996 RMK A01 T00430035  RH  094%=      5-min Rain = 0
KOD1 180855Z 13010KT 04/04 A2996 RMK A01 T00430035  RH  094%=      5-min Rain = 0
KOD1 180856Z 14009KT 04/04 A2996 RMK A01 T00430035  RH  094%=      5-min Rain = 0
KOD1 180857Z 13011KT 04/04 A2996 RMK A01 T00430035  RH  094%=      5-min Rain = 0
KOD1 180858Z 14010KT 04/03 A2996 RMK A01 T00430034  RH  094%=      5-min Rain = 0
KOD1 180859Z 14011KT 04/04 A2996 RMK A01 T00430035  RH  095%=      5-min Rain = 0
KOD1 180900Z 14009KT 04/04 A2996 RMK A01 T00440036  RH  095%=      5-min Rain = 0
KOD1 180901Z 14010KT 04/04 A2996 RMK A01 T00440036  RH  094%=      5-min Rain = 0
KOD1 180902Z 14010KT 04/04 A2996 RMK A01 T00440036  RH  094%=      5-min Rain = 0
KOD1 180903Z 14010KT 04/04 A2996 RMK A01 T00440036  RH  094%=      5-min Rain = 0
KOD1 180904Z 14010KT 05/04 A2996 RMK A01 T00450036  RH  094%=      5-min Rain = 0
KOD1 180905Z 14010KT 05/04 A2996 RMK A01 T00450036  RH  094%=      5-min Rain = 0
KOD1 180906Z 14009KT 05/04 A2996 RMK A01 T00450037  RH  094%=      5-min Rain = 0
KOD1 180907Z 14010KT 05/04 A2996 RMK A01 T00460038  RH  095%=      5-min Rain = 0
KOD1 180908Z 14010KT 05/04 A2996 RMK A01 T00460037  RH  094%=      5-min Rain = 0
KOD1 180909Z 13012KT 05/04 A2995 RMK A01 T00460038  RH  094%=      5-min Rain = 0
KOD1 180910Z 13011KT 05/04 A2995 RMK A01 T00470038  RH  094%=      5-min Rain = 0
KOD1 180911Z 14010KT 05/04 A2995 RMK A01 T00470038  RH  094%=      5-min Rain = 0
KOD1 180912Z 13010KT 05/04 A2995 RMK A01 T00460037  RH  094%=      5-min Rain = 0
KOD1 180913Z 13009KT 05/04 A2995 RMK A01 T00460036  RH  093%=      5-min Rain = 0
KOD1 180914Z 13010KT 05/04 A2995 RMK A01 T00450035  RH  093%=      5-min Rain = 0
KOD1 180915Z 13011KT 05/04 A2995 RMK A01 T00450035  RH  094%=      5-min Rain = 0
KOD1 180916Z 13010KT 05/04 A2995 RMK A01 T00450035  RH  094%=      5-min Rain = 0
KOD1 180917Z 13010KT 04/03 A2995 RMK A01 T00440034  RH  094%=      5-min Rain = 0
KOD1 180918Z 13010KT 04/03 A2995 RMK A01 T00440034  RH  094%=      5-min Rain = 0
KOD1 180919Z 13011KT 04/04 A2995 RMK A01 T00440035  RH  094%=      5-min Rain = 0
KOD1 180920Z 13010KT 04/04 A2995 RMK A01 T00440035  RH  094%=      5-min Rain = 0
KOD1 180921Z 13011KT 04/04 A2995 RMK A01 T00440035  RH  094%=      5-min Rain = 0
KOD1 180922Z 13010KT 04/03 A2995 RMK A01 T00430034  RH  094%=      5-min Rain = 0
KOD1 180923Z 13009KT 04/03 A2995 RMK A01 T00430034  RH  094%=      5-min Rain = 0
KOD1 180924Z 13009KT 04/03 A2995 RMK A01 T00420034  RH  094%=      5-min Rain = 0
KOD1 180925Z 13009KT 04/03 A2995 RMK A01 T00420033  RH  094%=      5-min Rain = 0
KOD1 180926Z 13011KT 04/03 A2995 RMK A01 T00420033  RH  094%=      5-min Rain = 0
KOD1 180927Z 13011KT 04/03 A2995 RMK A01 T00410033  RH  094%=      5-min Rain = 0
KOD1 180928Z 13009KT 04/03 A2995 RMK A01 T00410032  RH  094%=      5-min Rain = 0
KOD1 180929Z 13010KT 04/03 A2995 RMK A01 T00400032  RH  094%=      5-min Rain = 0
KOD1 180930Z 13010KT 04/03 A2995 RMK A01 T00400031  RH  094%=      5-min Rain = 0
KOD1 180931Z 13011KT 04/03 A2995 RMK A01 T00390031  RH  094%=      5-min Rain = 0
KOD1 180932Z 13010KT 04/03 A2995 RMK A01 T00390031  RH  095%=      5-min Rain = 0
KOD1 180933Z 13009KT 04/03 A2995 RMK A01 T00390031  RH  095%=      5-min Rain = 0
KOD1 180934Z 13010KT 04/03 A2995 RMK A01 T00390031  RH  095%=      5-min Rain = 0
KOD1 180935Z 13009KT 04/03 A2995 RMK A01 T00380031  RH  095%=      5-min Rain = 0
KOD1 180936Z 13010KT 04/03 A2995 RMK A01 T00380031  RH  095%=      5-min Rain = 0
KOD1 180937Z 14010KT 04/03 A2995 RMK A01 T00380031  RH  095%=      5-min Rain = 0
KOD1 180938Z 13010KT 04/03 A2994 RMK A01 T00390032  RH  095%=      5-min Rain = 0
KOD1 180939Z 13010KT 04/03 A2994 RMK A01 T00390032  RH  095%=      5-min Rain = 0
KOD1 180940Z 14011KT 04/03 A2994 RMK A01 T00390032  RH  095%=      5-min Rain = 0
KOD1 180941Z 14011KT 04/03 A2994 RMK A01 T00390033  RH  096%=      5-min Rain = 0
KOD1 180942Z 14010KT 04/03 A2994 RMK A01 T00400033  RH  096%=      5-min Rain = 0
KOD1 180943Z 14012KT 04/03 A2994 RMK A01 T00400034  RH  096%=      5-min Rain = 0
KOD1 180944Z 14011KT 04/03 A2994 RMK A01 T00410034  RH  096%=      5-min Rain = 0
KOD1 180945Z 13011KT 04/03 A2994 RMK A01 T00410034  RH  095%=      5-min Rain = 0
KOD1 180946Z 14012KT 04/03 A2993 RMK A01 T00410034  RH  095%=      5-min Rain = 0
KOD1 180947Z 14011KT 04/04 A2993 RMK A01 T00410035  RH  096%=      5-min Rain = 0
KOD1 180948Z 14013KT 04/04 A2993 RMK A01 T00410035  RH  095%=      5-min Rain = 0
KOD1 180949Z 14014KT 04/04 A2993 RMK A01 T00420035  RH  096%=      5-min Rain = 0
KOD1 180950Z 14013KT 04/04 A2993 RMK A01 T00420036  RH  095%=      5-min Rain = 0
KOD1 180951Z 14014KT 04/04 A2993 RMK A01 T00420036  RH  095%=      5-min Rain = 0
KOD1 180952Z 14014KT 04/04 A2993 RMK A01 T00420035  RH  095%=      5-min Rain = 0
KOD1 180953Z 14013KT 04/04 A2993 RMK A01 T00420035  RH  095%=      5-min Rain = 0
KOD1 180954Z 14014KT 04/03 A2993 RMK A01 T00420034  RH  095%=      5-min Rain = 0
KOD1 180955Z 14014KT 04/03 A2992 RMK A01 T00420034  RH  095%=      5-min Rain = 0
KOD1 180956Z 14014KT 04/04 A2992 RMK A01 T00420035  RH  095%=      5-min Rain = 0
KOD1 180957Z 14013KT 04/04 A2992 RMK A01 T00420035  RH  095%=      5-min Rain = 0
KOD1 180958Z 14014KT 04/04 A2992 RMK A01 T00420035  RH  095%=      5-min Rain = 0
KOD1 180959Z 15014KT 04/04 A2992 RMK A01 T00430036  RH  096%=      5-min Rain = 0
KOD1 181000Z 14013KT 04/04 A2992 RMK A01 T00430036  RH  095%=      5-min Rain = 0
KOD1 181001Z 14014KT 04/04 A2992 RMK A01 T00430036  RH  095%=      5-min Rain = 0
KOD1 181002Z 14015KT 04/04 A2992 RMK A01 T00430035  RH  095%=      5-min Rain = 0
KOD1 181003Z 15015KT 04/04 A2992 RMK A01 T00420035  RH  095%=      5-min Rain = 0
KOD1 181004Z 14015KT 04/04 A2992 RMK A01 T00420035  RH  095%=      5-min Rain = 0
KOD1 181005Z 15015KT 04/04 A2992 RMK A01 T00420035  RH  095%=      5-min Rain = 0
KOD1 181006Z 15015KT 04/04 A2992 RMK A01 T00430036  RH  095%=      5-min Rain = 0
KOD1 181007Z 15015KT 04/04 A2992 RMK A01 T00430036  RH  095%=      5-min Rain = 0
KOD1 181008Z 15014KT 04/04 A2992 RMK A01 T00430036  RH  095%=      5-min Rain = 0
KOD1 181009Z 14014KT 04/04 A2992 RMK A01 T00430036  RH  095%=      5-min Rain = 0
KOD1 181010Z 14015KT 04/04 A2992 RMK A01 T00430036  RH  095%=      5-min Rain = 0
KOD1 181011Z 15015KT 04/04 A2991 RMK A01 T00440037  RH  095%=      5-min Rain = 0
KOD1 181012Z 14015KT 04/04 A2991 RMK A01 T00440037  RH  095%=      5-min Rain = 0
KOD1 181013Z 14014KT 04/04 A2991 RMK A01 T00440037  RH  095%=      5-min Rain = 0
KOD1 181014Z 14014KT 04/04 A2991 RMK A01 T00440037  RH  095%=      5-min Rain = 0
KOD1 181015Z 14015KT 04/04 A2991 RMK A01 T00440037  RH  095%=      5-min Rain = 0
KOD1 181016Z 14014KT 04/04 A2991 RMK A01 T00440037  RH  095%=      5-min Rain = 0
KOD1 181017Z 14015KT 04/04 A2991 RMK A01 T00440037  RH  095%=      5-min Rain = 0
KOD1 181018Z 14014KT 04/04 A2991 RMK A01 T00440037  RH  095%=      5-min Rain = 0
KOD1 181019Z 14014KT 04/04 A2991 RMK A01 T00440037  RH  095%=      5-min Rain = 0
KOD1 181020Z 14013KT 04/04 A2991 RMK A01 T00440037  RH  095%=      5-min Rain = 0
KOD1 181021Z 14014KT 04/04 A2991 RMK A01 T00440037  RH  095%=      5-min Rain = 0
KOD1 181022Z 14016KT 05/04 A2991 RMK A01 T00450038  RH  095%=      5-min Rain = 0
KOD1 181023Z 14014KT 05/04 A2991 RMK A01 T00450039  RH  096%=      5-min Rain = 0
KOD1 181024Z 14015KT 05/04 A2991 RMK A01 T00460039  RH  095%=      5-min Rain = 0
KOD1 181025Z 14015KT 05/04 A2991 RMK A01 T00460040  RH  096%=      5-min Rain = 0
KOD1 181026Z 14014KT 05/04 A2991 RMK A01 T00460039  RH  095%=      5-min Rain = 0
KOD1 181027Z 14014KT 05/04 A2991 RMK A01 T00460038  RH  095%=      5-min Rain = 0
KOD1 181028Z 14013KT 05/04 A2991 RMK A01 T00460038  RH  095%=      5-min Rain = 0
KOD1 181029Z 14013KT 05/04 A2991 RMK A01 T00450037  RH  095%=      5-min Rain = 0
KOD1 181030Z 14015G20KT 05/04 A2991 RMK A01 T00450037  RH  095%=      5-min Rain = 0
KOD1 181031Z 14015KT 05/04 A299 RMK A01 T00450038  RH  095%=      5-min Rain = 0
KOD1 181032Z 14014KT 05/04 A299 RMK A01 T00450038  RH  095%=      5-min Rain = 0
KOD1 181033Z 14014KT 05/04 A299 RMK A01 T00450038  RH  095%=      5-min Rain = 0
KOD1 181034Z 14014KT 05/04 A299 RMK A01 T00450038  RH  095%=      5-min Rain = 0
KOD1 181035Z 14014KT 05/04 A299 RMK A01 T00450037  RH  095%=      5-min Rain = 0
KOD1 181036Z 14015KT 05/04 A299 RMK A01 T00450038  RH  095%=      5-min Rain = 0
KOD1 181037Z 14014KT 05/04 A2989 RMK A01 T00450038  RH  095%=      5-min Rain = 0
KOD1 181038Z 14014KT 05/04 A2989 RMK A01 T00450037  RH  095%=      5-min Rain = 0
KOD1 181039Z 14014KT 04/04 A2989 RMK A01 T00440037  RH  095%=      5-min Rain = 0
KOD1 181040Z 14015KT 04/04 A2989 RMK A01 T00440037  RH  095%=      5-min Rain = 0
KOD1 181041Z 14015KT 04/04 A2989 RMK A01 T00440037  RH  095%=      5-min Rain = 0
KOD1 181042Z 14014KT 04/04 A2989 RMK A01 T00440037  RH  095%=      5-min Rain = 0
KOD1 181043Z 14016KT 04/04 A2989 RMK A01 T00440037  RH  095%=      5-min Rain = 0
KOD1 181044Z 14016KT 04/04 A2989 RMK A01 T00440038  RH  095%=      5-min Rain = 0
KOD1 181045Z 15015KT 05/04 A2989 RMK A01 T00450038  RH  095%=      5-min Rain = 0
KOD1 181046Z 14014KT 04/04 A2989 RMK A01 T00440037  RH  095%=      5-min Rain = 0
KOD1 181047Z 14016KT 04/04 A2989 RMK A01 T00440037  RH  095%=      5-min Rain = 0
KOD1 181048Z 15016KT 04/04 A2989 RMK A01 T00440038  RH  095%=      5-min Rain = 0
KOD1 181049Z 14014KT 04/04 A2989 RMK A01 T00440037  RH  095%=      5-min Rain = 0
KOD1 181050Z 15015KT 04/04 A2989 RMK A01 T00440037  RH  095%=      5-min Rain = 0
KOD1 181051Z 14014KT 04/04 A2989 RMK A01 T00430036  RH  095%=      5-min Rain = 0
KOD1 181052Z 14015KT 04/04 A2989 RMK A01 T00430036  RH  095%=      5-min Rain = 0
KOD1 181053Z 14015KT 04/04 A2989 RMK A01 T00430036  RH  095%=      5-min Rain = 0
KOD1 181054Z 14015KT 04/04 A2989 RMK A01 T00430036  RH  096%=      5-min Rain = 0
KOD1 181055Z 14015KT 04/04 A2989 RMK A01 T00430037  RH  096%=      5-min Rain = 0
KOD1 181056Z 15016KT 04/04 A2989 RMK A01 T00440037  RH  096%=      5-min Rain = 0
KOD1 181057Z 15014KT 04/04 A2989 RMK A01 T00440037  RH  096%=      5-min Rain = 0
KOD1 181058Z 15016KT 04/04 A2989 RMK A01 T00440037  RH  096%=      5-min Rain = 0
KOD1 181059Z 15015KT 04/04 A2989 RMK A01 T00440038  RH  096%=      5-min Rain = 0
KOD1 181100Z 14015KT 04/04 A2989 RMK A01 T00440038  RH  096%=      5-min Rain = 0
KOD1 181101Z 15014KT 04/04 A2988 RMK A01 T00440037  RH  095%=      5-min Rain = 0
KOD1 181102Z 15015KT 04/04 A2988 RMK A01 T00440037  RH  095%=      5-min Rain = 0
KOD1 181103Z 15015KT 04/04 A2988 RMK A01 T00440037  RH  096%=      5-min Rain = 0
KOD1 181104Z 14015KT 04/04 A2988 RMK A01 T00440038  RH  096%=      5-min Rain = 0
KOD1 181105Z 15014KT 04/04 A2988 RMK A01 T00440038  RH  096%=      5-min Rain = 0
KOD1 181106Z 15015KT 04/04 A2988 RMK A01 T00440038  RH  096%=      5-min Rain = 0
KOD1 181107Z 14014KT 04/04 A2988 RMK A01 T00440038  RH  096%=      5-min Rain = 0
KOD1 181108Z 14013KT 04/04 A2988 RMK A01 T00440038  RH  095%=      5-min Rain = 0
KOD1 181109Z 14013KT 04/04 A2988 RMK A01 T00440037  RH  095%=      5-min Rain = 0
KOD1 181110Z 15013KT 04/04 A2987 RMK A01 T00440037  RH  095%=      5-min Rain = 0
KOD1 181111Z 14015KT 04/04 A2987 RMK A01 T00440037  RH  096%=      5-min Rain = 0
KOD1 181112Z 14016KT 04/04 A2987 RMK A01 T00440038  RH  096%=      5-min Rain = 0
KOD1 181113Z 14014KT 04/04 A2987 RMK A01 T00440038  RH  096%=      5-min Rain = 0
KOD1 181114Z 14015KT 04/04 A2987 RMK A01 T00440037  RH  095%=      5-min Rain = 0
KOD1 181115Z 14013KT 04/04 A2987 RMK A01 T00440037  RH  095%=      5-min Rain = 0
KOD1 181116Z 15015KT 04/04 A2987 RMK A01 T00440038  RH  096%=      5-min Rain = 0
KOD1 181117Z 14014KT 05/04 A2987 RMK A01 T00450038  RH  096%=      5-min Rain = 0
KOD1 181118Z 14014KT 05/04 A2987 RMK A01 T00450038  RH  095%=      5-min Rain = 0
KOD1 181119Z 14014KT 04/04 A2987 RMK A01 T00440038  RH  095%=      5-min Rain = 0
KOD1 181120Z 14014KT 04/04 A2986 RMK A01 T00440037  RH  095%=      5-min Rain = 0
KOD1 181121Z 14014KT 04/04 A2986 RMK A01 T00440037  RH  095%=      5-min Rain = 0
KOD1 181122Z 14013KT 04/04 A2986 RMK A01 T00440037  RH  095%=      5-min Rain = 0
KOD1 181123Z 14015KT 04/04 A2986 RMK A01 T00440037  RH  095%=      5-min Rain = 0
KOD1 181124Z 14015KT 05/04 A2986 RMK A01 T00450038  RH  096%=      5-min Rain = 0
KOD1 181125Z 14013KT 04/04 A2986 RMK A01 T00440038  RH  095%=      5-min Rain = 0
KOD1 181126Z 14014KT 05/04 A2986 RMK A01 T00450038  RH  096%=      5-min Rain = 0
KOD1 181127Z 14013KT 05/04 A2986 RMK A01 T00450038  RH  095%=      5-min Rain = 0
KOD1 181128Z 14014KT 04/04 A2986 RMK A01 T00440037  RH  095%=      5-min Rain = 0
KOD1 181129Z 14013KT 04/04 A2986 RMK A01 T00440037  RH  095%=      5-min Rain = 0
KOD1 181130Z 14013KT 04/04 A2986 RMK A01 T00440037  RH  095%=      5-min Rain = 0
KOD1 181131Z 14013KT 04/04 A2986 RMK A01 T00440037  RH  095%=      5-min Rain = 0
KOD1 181132Z 14013KT 04/04 A2986 RMK A01 T00440037  RH  095%=      5-min Rain = 0
KOD1 181133Z 14014KT 04/04 A2986 RMK A01 T00440037  RH  095%=      5-min Rain = 0
KOD1 181134Z 14013KT 04/04 A2986 RMK A01 T00440037  RH  095%=      5-min Rain = 0
KOD1 181135Z 14013KT 04/04 A2986 RMK A01 T00440037  RH  095%=      5-min Rain = 0
KOD1 181136Z 14013KT 04/04 A2986 RMK A01 T00440037  RH  095%=      5-min Rain = 0
KOD1 181137Z 14014KT 04/04 A2986 RMK A01 T00440038  RH  096%=      5-min Rain = 0
KOD1 181138Z 14013KT 04/04 A2986 RMK A01 T00440038  RH  096%=      5-min Rain = 0
KOD1 181139Z 14014KT 04/04 A2986 RMK A01 T00440038  RH  096%=      5-min Rain = 0
KOD1 181140Z 14013KT 05/04 A2986 RMK A01 T00450038  RH  096%=      5-min Rain = 0
KOD1 181141Z 14014KT 05/04 A2986 RMK A01 T00450039  RH  096%=      5-min Rain = 0
KOD1 181142Z 14014KT 05/04 A2986 RMK A01 T00450039  RH  096%=      5-min Rain = 0
KOD1 181143Z 14013KT 05/04 A2986 RMK A01 T00450039  RH  096%=      5-min Rain = 0
KOD1 181144Z 14016KT 05/04 A2986 RMK A01 T00460039  RH  096%=      5-min Rain = 0
KOD1 181145Z 15014KT 05/04 A2986 RMK A01 T00460040  RH  096%=      5-min Rain = 0
KOD1 181146Z 15014KT 05/04 A2986 RMK A01 T00460039  RH  096%=      5-min Rain = 0
KOD1 181147Z 15014KT 05/04 A2985 RMK A01 T00460039  RH  095%=      5-min Rain = 0
KOD1 181148Z 15015KT 05/04 A2985 RMK A01 T00460039  RH  095%=      5-min Rain = 0
KOD1 181149Z 15014KT 05/04 A2985 RMK A01 T00460039  RH  096%=      5-min Rain = 0
KOD1 181150Z 15016KT 05/04 A2985 RMK A01 T00460040  RH  096%=      5-min Rain = 0
KOD1 181151Z 15016KT 05/04 A2985 RMK A01 T00460040  RH  096%=      5-min Rain = 0
KOD1 181152Z 15015KT 05/04 A2985 RMK A01 T00470041  RH  096%=      5-min Rain = 0
KOD1 181153Z 15017KT 05/04 A2985 RMK A01 T00470041  RH  096%=      5-min Rain = 0
KOD1 181154Z 15015KT 05/04 A2985 RMK A01 T00480042  RH  096%=      5-min Rain = 0
KOD1 181155Z 15016KT 05/04 A2985 RMK A01 T00490042  RH  096%=      5-min Rain = 0
KOD1 181156Z 15016KT 05/04 A2985 RMK A01 T00490042  RH  095%=      5-min Rain = 0
KOD1 181157Z 15016KT 05/04 A2985 RMK A01 T00490043  RH  095%=      5-min Rain = 0
KOD1 181158Z 15016KT 05/04 A2985 RMK A01 T00500043  RH  095%=      5-min Rain = 0
KOD1 181159Z 15016KT 05/04 A2985 RMK A01 T00500043  RH  095%=      5-min Rain = 0
KOD1 181200Z 15016KT 05/04 A2985 RMK A01 T00510044  RH  095%=      5-min Rain = 0
KOD1 181201Z 15016KT 05/04 A2984 RMK A01 T00510044  RH  095%=      5-min Rain = 0
KOD1 181202Z 15015KT 05/04 A2984 RMK A01 T00510043  RH  095%=      5-min Rain = 0
KOD1 181203Z 15015KT 05/04 A2984 RMK A01 T00510043  RH  095%=      5-min Rain = 0
KOD1 181204Z 15015KT 05/04 A2984 RMK A01 T00510043  RH  094%=      5-min Rain = 0
KOD1 181205Z 15016KT 05/04 A2984 RMK A01 T00510043  RH  095%=      5-min Rain = 0
KOD1 181206Z 15015KT 05/04 A2984 RMK A01 T00510043  RH  095%=      5-min Rain = 0
KOD1 181207Z 15015KT 05/04 A2984 RMK A01 T00510043  RH  094%=      5-min Rain = 0
KOD1 181208Z 15015KT 05/04 A2984 RMK A01 T00510042  RH  094%=      5-min Rain = 0
KOD1 181209Z 15015KT 05/04 A2984 RMK A01 T00510043  RH  094%=      5-min Rain = 0
KOD1 181210Z 15015KT 05/04 A2984 RMK A01 T00510043  RH  095%=      5-min Rain = 0
KOD1 181211Z 15014KT 05/04 A2984 RMK A01 T00510043  RH  094%=      5-min Rain = 0
KOD1 181212Z 15015KT 05/04 A2984 RMK A01 T00510043  RH  095%=      5-min Rain = 0
KOD1 181213Z 15015KT 05/04 A2984 RMK A01 T00510043  RH  095%=      5-min Rain = 0
KOD1 181214Z 15014KT 05/04 A2984 RMK A01 T00510043  RH  095%=      5-min Rain = 0
KOD1 181215Z 15013KT 05/04 A2985 RMK A01 T00510042  RH  094%=      5-min Rain = 0
KOD1 181216Z 15014KT 05/04 A2985 RMK A01 T00510042  RH  094%=      5-min Rain = 0
KOD1 181217Z 15012KT 05/04 A2985 RMK A01 T00500042  RH  094%=      5-min Rain = 0
KOD1 181218Z 15014KT 05/04 A2984 RMK A01 T00500042  RH  095%=      5-min Rain = 0
KOD1 181219Z 15013KT 05/04 A2984 RMK A01 T00500042  RH  095%=      5-min Rain = 0
KOD1 181220Z 15013KT 05/04 A2984 RMK A01 T00500042  RH  095%=      5-min Rain = 0
KOD1 181221Z 15012KT 05/04 A2984 RMK A01 T00500042  RH  094%=      5-min Rain = 0
KOD1 181222Z 15012KT 05/04 A2984 RMK A01 T00500041  RH  094%=      5-min Rain = 0
KOD1 181223Z 15013KT 05/04 A2984 RMK A01 T00490041  RH  094%=      5-min Rain = 0
KOD1 181224Z 15013KT 05/04 A2984 RMK A01 T00490041  RH  095%=      5-min Rain = 0
KOD1 181225Z 15013KT 05/04 A2984 RMK A01 T00490041  RH  095%=      5-min Rain = 0
KOD1 181226Z 15014KT 05/04 A2984 RMK A01 T00490042  RH  095%=      5-min Rain = 0
KOD1 181227Z 15013KT 05/04 A2984 RMK A01 T00490042  RH  095%=      5-min Rain = 0
KOD1 181228Z 15013KT 05/04 A2984 RMK A01 T00500042  RH  095%=      5-min Rain = 0
KOD1 181229Z 15014KT 05/04 A2984 RMK A01 T00500042  RH  095%=      5-min Rain = 0
KOD1 181230Z 15014KT 05/04 A2984 RMK A01 T00500042  RH  095%=      5-min Rain = 0
KOD1 181231Z 15014KT 05/04 A2984 RMK A01 T00500042  RH  095%=      5-min Rain = 0
KOD1 181232Z 15013KT 05/04 A2984 RMK A01 T00500042  RH  095%=      5-min Rain = 0
KOD1 181233Z 15014KT 05/04 A2984 RMK A01 T00490041  RH  095%=      5-min Rain = 0
KOD1 181234Z 15013KT 05/04 A2984 RMK A01 T00490041  RH  095%=      5-min Rain = 0
KOD1 181235Z 15015KT 05/04 A2984 RMK A01 T00490041  RH  095%=      5-min Rain = 0
KOD1 181236Z 14015KT 05/04 A2984 RMK A01 T00490042  RH  095%=      5-min Rain = 0
KOD1 181237Z 15015KT 05/04 A2984 RMK A01 T00490042  RH  095%=      5-min Rain = 0
KOD1 181238Z 15015KT 05/04 A2984 RMK A01 T00490042  RH  095%=      5-min Rain = 0
KOD1 181239Z 15015KT 05/04 A2984 RMK A01 T00490042  RH  095%=      5-min Rain = 0
KOD1 181240Z 15015KT 05/04 A2984 RMK A01 T00500042  RH  095%=      5-min Rain = 0
KOD1 181241Z 15014KT 05/04 A2984 RMK A01 T00500042  RH  095%=      5-min Rain = 0
KOD1 181242Z 15013KT 05/04 A2983 RMK A01 T00490042  RH  095%=      5-min Rain = 0
KOD1 181243Z 15013KT 05/04 A2984 RMK A01 T00490041  RH  095%=      5-min Rain = 0
KOD1 181244Z 15013KT 05/04 A2984 RMK A01 T00490041  RH  095%=      5-min Rain = 0
KOD1 181245Z 15013KT 05/04 A2984 RMK A01 T00490041  RH  095%=      5-min Rain = 0
KOD1 181246Z 15012KT 05/04 A2984 RMK A01 T00490041  RH  095%=      5-min Rain = 0
KOD1 181247Z 15013KT 05/04 A2984 RMK A01 T00480041  RH  095%=      5-min Rain = 0
KOD1 181248Z 15013KT 05/04 A2984 RMK A01 T00480041  RH  095%=      5-min Rain = 0
KOD1 181249Z 15013KT 05/04 A2984 RMK A01 T00480041  RH  095%=      5-min Rain = 0
KOD1 181250Z 15014KT 05/04 A2984 RMK A01 T00480041  RH  095%=      5-min Rain = 0
KOD1 181251Z 15014KT 05/04 A2984 RMK A01 T00480041  RH  095%=      5-min Rain = 0
KOD1 181252Z 14014KT 05/04 A2983 RMK A01 T00480041  RH  095%=      5-min Rain = 0
KOD1 181253Z 14014KT 05/04 A2983 RMK A01 T00480041  RH  095%=      5-min Rain = 0
KOD1 181254Z 15014KT 05/04 A2983 RMK A01 T00480042  RH  095%=      5-min Rain = 0
KOD1 181255Z 15013KT 05/04 A2983 RMK A01 T00490042  RH  095%=      5-min Rain = 0
KOD1 181256Z 15013KT 05/04 A2983 RMK A01 T00490042  RH  095%=      5-min Rain = 0
KOD1 181257Z 15014KT 05/04 A2983 RMK A01 T00480041  RH  095%=      5-min Rain = 0
KOD1 181258Z 15014KT 05/04 A2983 RMK A01 T00480042  RH  095%=      5-min Rain = 0
KOD1 181259Z 14013KT 05/04 A2983 RMK A01 T00490042  RH  095%=      5-min Rain = 0
KOD1 181300Z 14014KT 05/04 A2983 RMK A01 T00480042  RH  095%=      5-min Rain = 0
KOD1 181301Z 15014KT 05/04 A2983 RMK A01 T00480042  RH  095%=      5-min Rain = 0
KOD1 181302Z 14013KT 05/04 A2983 RMK A01 T00490042  RH  096%=      5-min Rain = 0
KOD1 181303Z 14014KT 05/04 A2983 RMK A01 T00490042  RH  096%=      5-min Rain = 0
KOD1 181304Z 14014KT 05/04 A2983 RMK A01 T00490043  RH  096%=      5-min Rain = 0
KOD1 181305Z 14012KT 05/04 A2983 RMK A01 T00490042  RH  095%=      5-min Rain = 0
KOD1 181306Z 14013KT 05/04 A2983 RMK A01 T00490042  RH  095%=      5-min Rain = 0
KOD1 181307Z 14013KT 05/04 A2983 RMK A01 T00490042  RH  095%=      5-min Rain = 0
KOD1 181308Z 14012KT 05/04 A2983 RMK A01 T00490042  RH  095%=      5-min Rain = 0
KOD1 181309Z 14011KT 05/04 A2983 RMK A01 T00490042  RH  095%=      5-min Rain = 0
KOD1 181310Z 14012KT 05/04 A2983 RMK A01 T00490042  RH  095%=      5-min Rain = 0
KOD1 181311Z 14013KT 05/04 A2983 RMK A01 T00490042  RH  096%=      5-min Rain = 0
KOD1 181312Z 14012KT 05/04 A2983 RMK A01 T00490043  RH  096%=      5-min Rain = 0
KOD1 181313Z 14013KT 05/04 A2983 RMK A01 T00490043  RH  096%=      5-min Rain = 0
KOD1 181314Z 14012KT 05/04 A2983 RMK A01 T00500043  RH  096%=      5-min Rain = 0
KOD1 181315Z 14013KT 05/04 A2983 RMK A01 T00490043  RH  095%=      5-min Rain = 0
KOD1 181316Z 14014KT 05/04 A2982 RMK A01 T00500043  RH  096%=      5-min Rain = 0
KOD1 181317Z 14014KT 05/04 A2982 RMK A01 T00500044  RH  096%=      5-min Rain = 0
KOD1 181318Z 14014KT 05/04 A2982 RMK A01 T00500044  RH  096%=      5-min Rain = 0
KOD1 181319Z 14013KT 05/04 A2982 RMK A01 T00510044  RH  096%=      5-min Rain = 0
KOD1 181320Z 15013KT 05/04 A2982 RMK A01 T00510044  RH  096%=      5-min Rain = 0
KOD1 181321Z 14012KT 05/04 A2982 RMK A01 T00510044  RH  095%=      5-min Rain = 0
KOD1 181322Z 14014KT 05/04 A2982 RMK A01 T00510044  RH  095%=      5-min Rain = 0
KOD1 181323Z 14013KT 05/04 A2982 RMK A01 T00510044  RH  095%=      5-min Rain = 0
KOD1 181324Z 14014KT 05/04 A2982 RMK A01 T00510044  RH  095%=      5-min Rain = 0
KOD1 181325Z 14014KT 05/05 A2982 RMK A01 T00510045  RH  096%=      5-min Rain = 0
KOD1 181326Z 14013KT 05/05 A2982 RMK A01 T00510045  RH  095%=      5-min Rain = 0
KOD1 181327Z 14013KT 05/04 A2982 RMK A01 T00510044  RH  095%=      5-min Rain = 0
KOD1 181328Z 14012KT 05/04 A2982 RMK A01 T00510044  RH  095%=      5-min Rain = 0
KOD1 181329Z 14011KT 05/04 A2982 RMK A01 T00510043  RH  095%=      5-min Rain = 0
KOD1 181330Z 14014KT 05/04 A2982 RMK A01 T00500043  RH  095%=      5-min Rain = 0
KOD1 181331Z 15014KT 05/04 A2982 RMK A01 T00510044  RH  095%=      5-min Rain = 0
KOD1 181332Z 14012KT 05/04 A2982 RMK A01 T00510044  RH  095%=      5-min Rain = 0
KOD1 181333Z 15013KT 05/04 A2982 RMK A01 T00510044  RH  095%=      5-min Rain = 0
KOD1 181334Z 15013KT 05/04 A2982 RMK A01 T00510044  RH  095%=      5-min Rain = 0
KOD1 181335Z 15012KT 05/04 A2982 RMK A01 T00510044  RH  095%=      5-min Rain = 0
KOD1 181336Z 14014KT 05/04 A2982 RMK A01 T00510044  RH  095%=      5-min Rain = 0
KOD1 181337Z 14012KT 05/04 A2982 RMK A01 T00510044  RH  095%=      5-min Rain = 0
KOD1 181338Z 15012KT 05/04 A2982 RMK A01 T00500043  RH  095%=      5-min Rain = 0
KOD1 181339Z 15011KT 05/04 A2982 RMK A01 T00500043  RH  095%=      5-min Rain = 0
KOD1 181340Z 15013KT 05/04 A2982 RMK A01 T00500043  RH  095%=      5-min Rain = 0
KOD1 181341Z 14013KT 05/04 A2982 RMK A01 T00500043  RH  096%=      5-min Rain = 0
KOD1 181342Z 15011KT 05/04 A2982 RMK A01 T00500043  RH  096%=      5-min Rain = 0
KOD1 181343Z 15012KT 05/04 A2982 RMK A01 T00500043  RH  096%=      5-min Rain = 0
KOD1 181344Z 15012KT 05/04 A2982 RMK A01 T00500044  RH  096%=      5-min Rain = 0
KOD1 181345Z 15012KT 05/04 A2982 RMK A01 T00500043  RH  096%=      5-min Rain = 0
KOD1 181346Z 15012KT 05/04 A2982 RMK A01 T00490043  RH  096%=      5-min Rain = 0
KOD1 181347Z 15013KT 05/04 A2981 RMK A01 T00490043  RH  096%=      5-min Rain = 0
KOD1 181348Z 15013KT 05/04 A2981 RMK A01 T00500044  RH  096%=      5-min Rain = 0
KOD1 181349Z 15013KT 05/04 A2981 RMK A01 T00490043  RH  096%=      5-min Rain = 0
KOD1 181350Z 15013KT 05/04 A2981 RMK A01 T00500044  RH  096%=      5-min Rain = 0
KOD1 181351Z 15012KT 05/04 A2981 RMK A01 T00490043  RH  096%=      5-min Rain = 0
KOD1 181352Z 15013KT 05/04 A2981 RMK A01 T00490043  RH  096%=      5-min Rain = 0
KOD1 181353Z 15013KT 05/04 A2981 RMK A01 T00490043  RH  096%=      5-min Rain = 0
KOD1 181354Z 15014KT 05/04 A2981 RMK A01 T00490043  RH  096%=      5-min Rain = 0
KOD1 181355Z 15014KT 05/04 A2981 RMK A01 T00490043  RH  096%=      5-min Rain = 0
KOD1 181356Z 15015KT 05/04 A2981 RMK A01 T00490044  RH  096%=      5-min Rain = 0
KOD1 181357Z 15014KT 05/04 A2981 RMK A01 T00490044  RH  096%=      5-min Rain = 0
KOD1 181358Z 15014KT 05/04 A2981 RMK A01 T00500044  RH  096%=      5-min Rain = 0
KOD1 181359Z 15015KT 05/04 A298 RMK A01 T00500044  RH  096%=      5-min Rain = 0
KOD1 181400Z 15016KT 05/05 A298 RMK A01 T00500045  RH  096%=      5-min Rain = 0
KOD1 181401Z 15015KT 05/05 A298 RMK A01 T00510045  RH  096%=      5-min Rain = 0
KOD1 181402Z 15014KT 05/05 A298 RMK A01 T00510045  RH  096%=      5-min Rain = 0
KOD1 181403Z 15015KT 05/05 A298 RMK A01 T00510045  RH  096%=      5-min Rain = 0
KOD1 181404Z 15015KT 05/05 A298 RMK A01 T00520046  RH  096%=      5-min Rain = 0
KOD1 181405Z 15014KT 05/05 A2981 RMK A01 T00520046  RH  096%=      5-min Rain = 0
KOD1 181406Z 15013KT 05/05 A2981 RMK A01 T00520046  RH  096%=      5-min Rain = 0
KOD1 181407Z 15012KT 05/05 A2981 RMK A01 T00520045  RH  096%=      5-min Rain = 0
KOD1 181408Z 15013KT 05/05 A2981 RMK A01 T00520045  RH  096%=      5-min Rain = 0
KOD1 181409Z 15013KT 05/05 A2981 RMK A01 T00520045  RH  096%=      5-min Rain = 0
KOD1 181410Z 15014KT 05/05 A2981 RMK A01 T00520046  RH  096%=      5-min Rain = 0
KOD1 181411Z 15014KT 05/05 A2981 RMK A01 T00520046  RH  096%=      5-min Rain = 0
KOD1 181412Z 15013KT 05/05 A2981 RMK A01 T00530047  RH  096%=      5-min Rain = 0
KOD1 181413Z 15014KT 05/05 A298 RMK A01 T00530047  RH  096%=      5-min Rain = 0
KOD1 181414Z 15015KT 05/05 A298 RMK A01 T00540047  RH  096%=      5-min Rain = 0
KOD1 181415Z 15014KT 05/05 A298 RMK A01 T00540047  RH  096%=      5-min Rain = 0
KOD1 181416Z 15015KT 06/05 A298 RMK A01 T00550048  RH  096%=      5-min Rain = 0
KOD1 181417Z 15013KT 06/05 A298 RMK A01 T00550049  RH  096%=      5-min Rain = 0
KOD1 181418Z 15015KT 06/05 A298 RMK A01 T00560049  RH  096%=      5-min Rain = 0
KOD1 181419Z 15013KT 06/05 A298 RMK A01 T00560050  RH  095%=      5-min Rain = 0
KOD1 181420Z 15014KT 06/05 A298 RMK A01 T00570050  RH  095%=      5-min Rain = 0
KOD1 181421Z 15014KT 06/05 A298 RMK A01 T00580051  RH  095%=      5-min Rain = 0
KOD1 181422Z 15013KT 06/05 A298 RMK A01 T00580051  RH  095%=      5-min Rain = 0
KOD1 181423Z 15013KT 06/05 A298 RMK A01 T00580051  RH  095%=      5-min Rain = 0
KOD1 181424Z 15013KT 06/05 A298 RMK A01 T00590052  RH  095%=      5-min Rain = 0
KOD1 181425Z 15015KT 06/05 A298 RMK A01 T00600052  RH  095%=      5-min Rain = 0
KOD1 181426Z 15013KT 06/05 A298 RMK A01 T00600053  RH  095%=      5-min Rain = 0
KOD1 181427Z 15013KT 06/05 A298 RMK A01 T00610053  RH  095%=      5-min Rain = 0
KOD1 181428Z 14012KT 06/05 A298 RMK A01 T00620053  RH  094%=      5-min Rain = 0
KOD1 181429Z 15013KT 06/05 A298 RMK A01 T00620053  RH  094%=      5-min Rain = 0
KOD1 181430Z 16011KT 06/05 A298 RMK A01 T00620053  RH  094%=      5-min Rain = 0
KOD1 181431Z 15012KT 06/05 A298 RMK A01 T00620053  RH  094%=      5-min Rain = 0
KOD1 181432Z 16011KT 06/05 A2981 RMK A01 T00620053  RH  094%=      5-min Rain = 0
KOD1 181433Z 15012KT 06/05 A298 RMK A01 T00620053  RH  094%=      5-min Rain = 0
KOD1 181434Z 15010KT 06/05 A298 RMK A01 T00620053  RH  094%=      5-min Rain = 0
KOD1 181435Z 15012KT 06/05 A298 RMK A01 T00620053  RH  094%=      5-min Rain = 0
KOD1 181436Z 16011KT 06/05 A2981 RMK A01 T00620053  RH  094%=      5-min Rain = 0
KOD1 181437Z 16010KT 06/05 A2981 RMK A01 T00620053  RH  094%=      5-min Rain = 0
KOD1 181438Z 15009KT 06/05 A2981 RMK A01 T00620053  RH  094%=      5-min Rain = 0
KOD1 181439Z 15010KT 06/05 A2981 RMK A01 T00620053  RH  094%=      5-min Rain = 0
KOD1 181440Z 15009KT 06/05 A2981 RMK A01 T00620053  RH  094%=      5-min Rain = 0
KOD1 181441Z 16009KT 06/05 A2981 RMK A01 T00620053  RH  094%=      5-min Rain = 0
KOD1 181442Z 15009KT 06/05 A2981 RMK A01 T00630053  RH  094%=      5-min Rain = 0
KOD1 181443Z 15009KT 06/05 A2981 RMK A01 T00630054  RH  094%=      5-min Rain = 0
KOD1 181444Z 15009KT 06/05 A298 RMK A01 T00630054  RH  094%=      5-min Rain = 0
KOD1 181445Z 15009KT 06/05 A298 RMK A01 T00630054  RH  094%=      5-min Rain = 0
KOD1 181446Z 15009KT 06/05 A298 RMK A01 T00630054  RH  094%=      5-min Rain = 0
KOD1 181447Z 15009KT 06/05 A298 RMK A01 T00640054  RH  094%=      5-min Rain = 0
KOD1 181448Z 15008KT 06/05 A2981 RMK A01 T00640054  RH  094%=      5-min Rain = 0
KOD1 181449Z 16008KT 06/05 A2981 RMK A01 T00640054  RH  094%=      5-min Rain = 0
KOD1 181450Z 15009KT 06/05 A2981 RMK A01 T00640054  RH  094%=      5-min Rain = 0
KOD1 181451Z 15007KT 06/05 A2981 RMK A01 T00640054  RH  094%=      5-min Rain = 0
KOD1 181452Z 16008KT 06/05 A2981 RMK A01 T00640054  RH  094%=      5-min Rain = 0
KOD1 181453Z 16008KT 06/05 A2981 RMK A01 T00640054  RH  093%=      5-min Rain = 0
KOD1 181454Z 16008KT 07/06 A2981 RMK A01 T00650055  RH  094%=      5-min Rain = 0
KOD1 181455Z 16008KT 07/06 A2981 RMK A01 T00650055  RH  094%=      5-min Rain = 0
KOD1 181456Z 15008KT 07/06 A2981 RMK A01 T00650056  RH  094%=      5-min Rain = 0
KOD1 181457Z 16009KT 07/06 A2981 RMK A01 T00660056  RH  094%=      5-min Rain = 0
KOD1 181458Z 15010KT 07/06 A2981 RMK A01 T00660056  RH  094%=      5-min Rain = 0
KOD1 181459Z 15008KT 07/06 A2981 RMK A01 T00660057  RH  094%=      5-min Rain = 0
KOD1 181500Z 16009KT 07/06 A2981 RMK A01 T00670057  RH  093%=      5-min Rain = 0
KOD1 181501Z 15008KT 07/06 A2981 RMK A01 T00670057  RH  093%=      5-min Rain = 0
KOD1 181502Z 14008KT 07/06 A2981 RMK A01 T00680058  RH  093%=      5-min Rain = 0
KOD1 181503Z 14007KT 07/06 A2981 RMK A01 T00690059  RH  093%=      5-min Rain = 0
KOD1 181504Z 15007KT 07/06 A2981 RMK A01 T00690059  RH  093%=      5-min Rain = 0
KOD1 181505Z 15007KT 07/06 A2981 RMK A01 T00700060  RH  093%=      5-min Rain = 0
KOD1 181506Z 14006KT 07/06 A298 RMK A01 T00710061  RH  093%=      5-min Rain = 0
KOD1 181507Z 13006KT 07/06 A298 RMK A01 T00720062  RH  093%=      5-min Rain = 0
KOD1 181508Z 14004KT 07/06 A298 RMK A01 T00740063  RH  093%=      5-min Rain = 0
KOD1 181509Z 14006KT 08/06 A298 RMK A01 T00750064  RH  093%=      5-min Rain = 0
KOD1 181510Z 14005KT 08/07 A298 RMK A01 T00760065  RH  093%=      5-min Rain = 0
KOD1 181511Z 13006KT 08/07 A298 RMK A01 T00780067  RH  093%=      5-min Rain = 0
KOD1 181512Z 13008KT 08/07 A298 RMK A01 T00790067  RH  092%=      5-min Rain = 0
KOD1 181513Z 13008KT 08/07 A298 RMK A01 T00800066  RH  091%=      5-min Rain = 0
KOD1 181514Z 14008KT 08/07 A298 RMK A01 T00800065  RH  090%=      5-min Rain = 0
KOD1 181515Z 14008KT 08/06 A298 RMK A01 T00800063  RH  089%=      5-min Rain = 0
KOD1 181516Z 15009KT 08/06 A298 RMK A01 T00800063  RH  089%=      5-min Rain = 0
KOD1 181517Z 14007KT 08/06 A298 RMK A01 T00800063  RH  089%=      5-min Rain = 0
KOD1 181518Z 15007KT 08/06 A298 RMK A01 T00800063  RH  089%=      5-min Rain = 0
KOD1 181519Z 15009KT 08/06 A298 RMK A01 T00800062  RH  089%=      5-min Rain = 0
KOD1 181520Z 15009KT 08/06 A298 RMK A01 T00800062  RH  088%=      5-min Rain = 0
KOD1 181521Z 16009KT 08/06 A298 RMK A01 T00800062  RH  088%=      5-min Rain = 0
KOD1 181522Z 15009KT 08/06 A298 RMK A01 T00800062  RH  088%=      5-min Rain = 0
KOD1 181523Z 15008KT 08/06 A298 RMK A01 T00800062  RH  088%=      5-min Rain = 0
KOD1 181524Z 15007KT 08/06 A298 RMK A01 T00800062  RH  088%=      5-min Rain = 0
KOD1 181525Z 16007KT 08/06 A298 RMK A01 T00800062  RH  088%=      5-min Rain = 0
KOD1 181526Z 16008KT 08/06 A298 RMK A01 T00810062  RH  088%=      5-min Rain = 0
KOD1 181527Z 15008KT 08/06 A298 RMK A01 T00810062  RH  088%=      5-min Rain = 0
KOD1 181528Z 16009KT 08/06 A298 RMK A01 T00810062  RH  088%=      5-min Rain = 0
KOD1 181529Z 17009KT 08/06 A298 RMK A01 T00810063  RH  088%=      5-min Rain = 0
KOD1 181530Z 16009KT 08/06 A298 RMK A01 T00820063  RH  088%=      5-min Rain = 0
KOD1 181531Z 17009KT 08/06 A298 RMK A01 T00820063  RH  088%=      5-min Rain = 0
KOD1 181532Z 17010KT 08/06 A298 RMK A01 T00820063  RH  088%=      5-min Rain = 0
KOD1 181533Z 16010KT 08/06 A298 RMK A01 T00820062  RH  087%=      5-min Rain = 0
KOD1 181534Z 17010KT 08/06 A298 RMK A01 T00830062  RH  087%=      5-min Rain = 0
KOD1 181535Z 16009KT 08/06 A298 RMK A01 T00830063  RH  087%=      5-min Rain = 0
KOD1 181536Z 17010KT 08/06 A298 RMK A01 T00830063  RH  087%=      5-min Rain = 0
KOD1 181537Z 16010KT 08/06 A298 RMK A01 T00830063  RH  087%=      5-min Rain = 0
KOD1 181538Z 17011KT 08/06 A298 RMK A01 T00840063  RH  087%=      5-min Rain = 0
KOD1 181539Z 17010KT 09/06 A298 RMK A01 T00850063  RH  086%=      5-min Rain = 0
KOD1 181540Z 17008KT 09/06 A298 RMK A01 T00860064  RH  086%=      5-min Rain = 0
KOD1 181541Z 17009KT 09/07 A298 RMK A01 T00870065  RH  086%=      5-min Rain = 0
KOD1 181542Z 18011KT 09/07 A298 RMK A01 T00880065  RH  086%=      5-min Rain = 0
KOD1 181543Z 18010KT 09/07 A298 RMK A01 T00890065  RH  085%=      5-min Rain = 0
KOD1 181544Z 17008KT 09/07 A298 RMK A01 T00900065  RH  085%=      5-min Rain = 0
KOD1 181545Z 17009KT 09/06 A298 RMK A01 T00900064  RH  084%=      5-min Rain = 0
KOD1 181546Z 17008KT 09/06 A298 RMK A01 T00900064  RH  084%=      5-min Rain = 0
KOD1 181547Z 17008KT 09/07 A298 RMK A01 T00900065  RH  084%=      5-min Rain = 0
KOD1 181548Z 18009KT 09/07 A298 RMK A01 T00910065  RH  084%=      5-min Rain = 0
KOD1 181549Z 17010KT 09/06 A298 RMK A01 T00910064  RH  084%=      5-min Rain = 0
KOD1 181550Z 18009KT 09/06 A298 RMK A01 T00910063  RH  083%=      5-min Rain = 0
KOD1 181551Z 18009KT 09/07 A298 RMK A01 T00920065  RH  083%=      5-min Rain = 0
KOD1 181552Z 18009KT 09/07 A298 RMK A01 T00920066  RH  083%=      5-min Rain = 0
KOD1 181553Z 18010KT 09/07 A2979 RMK A01 T00930065  RH  083%=      5-min Rain = 0
KOD1 181554Z 17011KT 09/06 A2979 RMK A01 T00930064  RH  082%=      5-min Rain = 0
KOD1 181555Z 17012KT 09/06 A2979 RMK A01 T00930063  RH  081%=      5-min Rain = 0
KOD1 181556Z 17011KT 09/06 A2979 RMK A01 T00930063  RH  081%=      5-min Rain = 0
KOD1 181557Z 17011KT 09/06 A2979 RMK A01 T00930063  RH  081%=      5-min Rain = 0
KOD1 181558Z 17011KT 09/06 A2979 RMK A01 T00930063  RH  082%=      5-min Rain = 0
KOD1 181559Z 17011KT 09/06 A2979 RMK A01 T00930063  RH  082%=      5-min Rain = 0
KOD1 181600Z 18011KT 09/06 A2979 RMK A01 T00920063  RH  082%=      5-min Rain = 0
KOD1 181601Z 18012KT 09/06 A2979 RMK A01 T00920062  RH  081%=      5-min Rain = 0
KOD1 181602Z 17009KT 09/06 A2979 RMK A01 T00920062  RH  081%=      5-min Rain = 0
KOD1 181603Z 17010KT 09/06 A2979 RMK A01 T00920062  RH  082%=      5-min Rain = 0
KOD1 181604Z 16010KT 09/06 A2979 RMK A01 T00910062  RH  082%=      5-min Rain = 0
KOD1 181605Z 16011KT 09/06 A2979 RMK A01 T00910063  RH  082%=      5-min Rain = 0
KOD1 181606Z 17010KT 09/06 A2979 RMK A01 T00910063  RH  083%=      5-min Rain = 0
KOD1 181607Z 17011KT 09/06 A2979 RMK A01 T00900063  RH  083%=      5-min Rain = 0
KOD1 181608Z 16010KT 09/06 A2979 RMK A01 T00900063  RH  083%=      5-min Rain = 0
KOD1 181609Z 17010KT 09/06 A2979 RMK A01 T00900063  RH  083%=      5-min Rain = 0
KOD1 181610Z 16010KT 09/06 A2979 RMK A01 T00900063  RH  084%=      5-min Rain = 0
KOD1 181611Z 16008KT 09/06 A2979 RMK A01 T00890064  RH  084%=      5-min Rain = 0
KOD1 181612Z 16010KT 09/06 A2978 RMK A01 T00890064  RH  084%=      5-min Rain = 0
KOD1 181613Z 16010KT 09/06 A2978 RMK A01 T00890063  RH  084%=      5-min Rain = 0
KOD1 181614Z 15010KT 09/06 A2977 RMK A01 T00890063  RH  084%=      5-min Rain = 0
KOD1 181615Z 15010KT 09/06 A2977 RMK A01 T00890063  RH  084%=      5-min Rain = 0
KOD1 181616Z 16010KT 09/06 A2978 RMK A01 T00890063  RH  084%=      5-min Rain = 0
KOD1 181617Z 17010KT 09/06 A2978 RMK A01 T00890063  RH  084%=      5-min Rain = 0
KOD1 181618Z 18010KT 09/06 A2979 RMK A01 T00890063  RH  084%=      5-min Rain = 0
KOD1 181619Z 17010KT 09/06 A2979 RMK A01 T00890063  RH  084%=      5-min Rain = 0
KOD1 181620Z 17010KT 09/06 A2978 RMK A01 T00890064  RH  084%=      5-min Rain = 0
KOD1 181621Z 17010KT 09/06 A2978 RMK A01 T00890064  RH  084%=      5-min Rain = 0
KOD1 181622Z 17008KT 09/07 A2979 RMK A01 T00900065  RH  084%=      5-min Rain = 0
KOD1 181623Z 17008KT 09/07 A2979 RMK A01 T00900065  RH  085%=      5-min Rain = 0
KOD1 181624Z 17010KT 09/07 A2979 RMK A01 T00900065  RH  085%=      5-min Rain = 0
KOD1 181625Z 17010KT 09/06 A2978 RMK A01 T00900064  RH  084%=      5-min Rain = 0
KOD1 181626Z 17010KT 09/06 A2979 RMK A01 T00900064  RH  083%=      5-min Rain = 0
KOD1 181627Z 17011KT 09/06 A2979 RMK A01 T00900063  RH  083%=      5-min Rain = 0
KOD1 181628Z 17009KT 09/06 A2978 RMK A01 T00910063  RH  083%=      5-min Rain = 0
KOD1 181629Z 17009KT 09/06 A2978 RMK A01 T00910064  RH  083%=      5-min Rain = 0
KOD1 181630Z 17010KT 09/06 A2978 RMK A01 T00910064  RH  083%=      5-min Rain = 0
KOD1 181631Z 16010KT 09/06 A2978 RMK A01 T00910063  RH  083%=      5-min Rain = 0
KOD1 181632Z 17010KT 09/06 A2978 RMK A01 T00910063  RH  082%=      5-min Rain = 0
KOD1 181633Z 17010KT 09/06 A2978 RMK A01 T00910063  RH  083%=      5-min Rain = 0
KOD1 181634Z 17010KT 09/06 A2978 RMK A01 T00910063  RH  083%=      5-min Rain = 0
KOD1 181635Z 16009KT 09/06 A2978 RMK A01 T00920064  RH  083%=      5-min Rain = 0
KOD1 181636Z 17009KT 09/06 A2978 RMK A01 T00920064  RH  083%=      5-min Rain = 0
KOD1 181637Z 17010KT 09/06 A2978 RMK A01 T00920064  RH  083%=      5-min Rain = 0
KOD1 181638Z 17009KT 09/06 A2978 RMK A01 T00920064  RH  082%=      5-min Rain = 0
KOD1 181639Z 17009KT 09/06 A2978 RMK A01 T00920064  RH  083%=      5-min Rain = 0
KOD1 181640Z 17008KT 09/07 A2978 RMK A01 T00930065  RH  083%=      5-min Rain = 0
KOD1 181641Z 17009KT 09/07 A2978 RMK A01 T00930065  RH  083%=      5-min Rain = 0
KOD1 181642Z 17008KT 09/07 A2978 RMK A01 T00930065  RH  083%=      5-min Rain = 0
KOD1 181643Z 17009KT 09/07 A2978 RMK A01 T00930065  RH  082%=      5-min Rain = 0
KOD1 181644Z 17008KT 09/07 A2979 RMK A01 T00930065  RH  082%=      5-min Rain = 0
KOD1 181645Z 17010KT 09/07 A2979 RMK A01 T00940065  RH  082%=      5-min Rain = 0
KOD1 181646Z 17009KT 09/07 A2979 RMK A01 T00940065  RH  082%=      5-min Rain = 0
KOD1 181647Z 17010KT 09/07 A2979 RMK A01 T00940065  RH  082%=      5-min Rain = 0
KOD1 181648Z 17009KT 09/07 A2979 RMK A01 T00940066  RH  082%=      5-min Rain = 0
KOD1 181649Z 17009KT 10/07 A2979 RMK A01 T00950066  RH  082%=      5-min Rain = 0
KOD1 181650Z 17009KT 10/07 A2978 RMK A01 T00950066  RH  082%=      5-min Rain = 0
KOD1 181651Z 17008KT 10/07 A2978 RMK A01 T00950066  RH  082%=      5-min Rain = 0
KOD1 181652Z 17009KT 10/07 A2978 RMK A01 T00960066  RH  082%=      5-min Rain = 0
KOD1 181653Z 17008KT 10/07 A2978 RMK A01 T00960066  RH  082%=      5-min Rain = 0
KOD1 181654Z 17008KT 10/07 A2978 RMK A01 T00960067  RH  082%=      5-min Rain = 0
KOD1 181655Z 17010KT 10/07 A2978 RMK A01 T00970067  RH  082%=      5-min Rain = 0
KOD1 181656Z 17009KT 10/07 A2978 RMK A01 T00970068  RH  082%=      5-min Rain = 0
KOD1 181657Z 17009KT 10/07 A2978 RMK A01 T00970068  RH  082%=      5-min Rain = 0
KOD1 181658Z 17009KT 10/07 A2978 RMK A01 T00980068  RH  082%=      5-min Rain = 0
KOD1 181659Z 17009KT 10/07 A2978 RMK A01 T00980069  RH  082%=      5-min Rain = 0
KOD1 181700Z 17009KT 10/07 A2978 RMK A01 T00980069  RH  082%=      5-min Rain = 0
KOD1 181701Z 17012KT 10/07 A2978 RMK A01 T00990068  RH  081%=      5-min Rain = 0
KOD1 181702Z 17011KT 10/07 A2978 RMK A01 T00990067  RH  080%=      5-min Rain = 0
KOD1 181703Z 18010KT 10/07 A2978 RMK A01 T01000068  RH  080%=      5-min Rain = 0
KOD1 181704Z 18008KT 10/07 A2978 RMK A01 T01010069  RH  081%=      5-min Rain = 0
KOD1 181705Z 18009KT 10/07 A2978 RMK A01 T01020070  RH  081%=      5-min Rain = 0
KOD1 181706Z 18010KT 10/07 A2978 RMK A01 T01020071  RH  081%=      5-min Rain = 0
KOD1 181707Z 18011KT 10/07 A2978 RMK A01 T01030070  RH  080%=      5-min Rain = 0
KOD1 181708Z 18011KT 10/07 A2977 RMK A01 T01040069  RH  079%=      5-min Rain = 0
KOD1 181709Z 18011KT 10/07 A2977 RMK A01 T01040070  RH  079%=      5-min Rain = 0
KOD1 181710Z 17010KT 11/07 A2977 RMK A01 T01050070  RH  079%=      5-min Rain = 0
KOD1 181711Z 17010KT 11/07 A2977 RMK A01 T01050071  RH  079%=      5-min Rain = 0
KOD1 181712Z 18010KT 11/07 A2977 RMK A01 T01060070  RH  079%=      5-min Rain = 0
KOD1 181713Z 17011KT 11/07 A2977 RMK A01 T01060071  RH  079%=      5-min Rain = 0
KOD1 181714Z 17011KT 11/07 A2976 RMK A01 T01070071  RH  078%=      5-min Rain = 0
KOD1 181715Z 17011KT 11/07 A2976 RMK A01 T01080071  RH  078%=      5-min Rain = 0
KOD1 181716Z 18011KT 11/07 A2976 RMK A01 T01080071  RH  078%=      5-min Rain = 0
KOD1 181717Z 18011KT 11/07 A2976 RMK A01 T01080072  RH  078%=      5-min Rain = 0
KOD1 181718Z 18011KT 11/07 A2976 RMK A01 T01090071  RH  078%=      5-min Rain = 0
KOD1 181719Z 17011KT 11/07 A2976 RMK A01 T01090072  RH  078%=      5-min Rain = 0
KOD1 181720Z 17011KT 11/07 A2976 RMK A01 T01100071  RH  077%=      5-min Rain = 0
KOD1 181721Z 17010KT 11/07 A2975 RMK A01 T01100073  RH  078%=      5-min Rain = 0
KOD1 181722Z 17011KT 11/07 A2975 RMK A01 T01100072  RH  077%=      5-min Rain = 0
KOD1 181723Z 18011KT 11/07 A2975 RMK A01 T01110072  RH  077%=      5-min Rain = 0
KOD1 181724Z 17012KT 11/07 A2975 RMK A01 T01120073  RH  077%=      5-min Rain = 0
KOD1 181725Z 17011KT 11/07 A2975 RMK A01 T01120072  RH  076%=      5-min Rain = 0
KOD1 181726Z 17012KT 11/07 A2975 RMK A01 T01130072  RH  076%=      5-min Rain = 0
KOD1 181727Z 18012KT 11/07 A2974 RMK A01 T01140072  RH  076%=      5-min Rain = 0
KOD1 181728Z 17012KT 11/07 A2974 RMK A01 T01140072  RH  075%=      5-min Rain = 0
KOD1 181729Z 17013KT 12/07 A2974 RMK A01 T01150073  RH  075%=      5-min Rain = 0
KOD1 181730Z 17012KT 12/07 A2974 RMK A01 T01150073  RH  075%=      5-min Rain = 0
KOD1 181731Z 17012KT 12/07 A2974 RMK A01 T01150072  RH  075%=      5-min Rain = 0
KOD1 181732Z 17012KT 12/07 A2974 RMK A01 T01160073  RH  075%=      5-min Rain = 0
KOD1 181733Z 17012KT 12/07 A2974 RMK A01 T01160073  RH  075%=      5-min Rain = 0
KOD1 181734Z 17013KT 12/07 A2974 RMK A01 T01160072  RH  074%=      5-min Rain = 0
KOD1 181735Z 17012KT 12/07 A2974 RMK A01 T01170073  RH  075%=      5-min Rain = 0
KOD1 181736Z 17012KT 12/07 A2974 RMK A01 T01170074  RH  075%=      5-min Rain = 0
KOD1 181737Z 17014KT 12/07 A2973 RMK A01 T01170072  RH  074%=      5-min Rain = 0
KOD1 181738Z 17012KT 12/07 A2973 RMK A01 T01180072  RH  074%=      5-min Rain = 0
KOD1 181739Z 17012KT 12/07 A2973 RMK A01 T01190074  RH  074%=      5-min Rain = 0
KOD1 181740Z 17012KT 12/07 A2973 RMK A01 T01190074  RH  074%=      5-min Rain = 0
KOD1 181741Z 17012KT 12/08 A2973 RMK A01 T01200075  RH  074%=      5-min Rain = 0
KOD1 181742Z 18014KT 12/07 A2973 RMK A01 T01210073  RH  073%=      5-min Rain = 0
KOD1 181743Z 18012KT 12/07 A2973 RMK A01 T01220074  RH  073%=      5-min Rain = 0
KOD1 181744Z 17013KT 12/08 A2973 RMK A01 T01230075  RH  072%=      5-min Rain = 0
KOD1 181745Z 18013KT 12/08 A2973 RMK A01 T01240075  RH  072%=      5-min Rain = 0
KOD1 181746Z 18013KT 13/08 A2973 RMK A01 T01250075  RH  072%=      5-min Rain = 0
KOD1 181747Z 18013KT 13/07 A2973 RMK A01 T01260074  RH  071%=      5-min Rain = 0
KOD1 181748Z 18012KT 13/08 A2973 RMK A01 T01260075  RH  071%=      5-min Rain = 0
KOD1 181749Z 17013KT 13/08 A2973 RMK A01 T01270075  RH  071%=      5-min Rain = 0
KOD1 181750Z 18013KT 13/08 A2972 RMK A01 T01280076  RH  071%=      5-min Rain = 0
KOD1 181751Z 18011KT 13/08 A2972 RMK A01 T01290078  RH  071%=      5-min Rain = 0
KOD1 181752Z 17012KT 13/08 A2972 RMK A01 T01300076  RH  070%=      5-min Rain = 0
KOD1 181753Z 18010KT 13/08 A2972 RMK A01 T01310078  RH  070%=      5-min Rain = 0
KOD1 181754Z 18010KT 13/08 A2972 RMK A01 T01320079  RH  070%=      5-min Rain = 0
KOD1 181755Z 18011KT 13/08 A2972 RMK A01 T01340080  RH  070%=      5-min Rain = 0
KOD1 181756Z 18012KT 14/08 A2972 RMK A01 T01350077  RH  068%=      5-min Rain = 0
KOD1 181757Z 18012KT 14/08 A2971 RMK A01 T01350077  RH  068%=      5-min Rain = 0
KOD1 181758Z 19012KT 14/08 A2971 RMK A01 T01370077  RH  067%=      5-min Rain = 0
KOD1 181759Z 18011KT 14/08 A2971 RMK A01 T01380079  RH  068%=      5-min Rain = 0
KOD1 181800Z 18013KT 14/08 A2971 RMK A01 T01380078  RH  067%=      5-min Rain = 0
KOD1 181801Z 18012KT 14/08 A2971 RMK A01 T01390079  RH  067%=      5-min Rain = 0
KOD1 181802Z 19012KT 14/08 A2971 RMK A01 T01400078  RH  066%=      5-min Rain = 0
KOD1 181803Z 18011KT 14/08 A2971 RMK A01 T01410077  RH  065%=      5-min Rain = 0
KOD1 181804Z 18011KT 14/08 A2971 RMK A01 T01400077  RH  065%=      5-min Rain = 0
KOD1 181805Z 18014KT 14/07 A297 RMK A01 T01400074  RH  064%=      5-min Rain = 0
KOD1 181806Z 18012KT 14/07 A297 RMK A01 T01400071  RH  063%=      5-min Rain = 0
KOD1 181807Z 18011KT 14/08 A297 RMK A01 T01410075  RH  065%=      5-min Rain = 0
KOD1 181808Z 18013KT 14/07 A297 RMK A01 T01400071  RH  063%=      5-min Rain = 0
KOD1 181809Z 18013KT 14/07 A297 RMK A01 T01400071  RH  063%=      5-min Rain = 0
KOD1 181810Z 19011KT 14/07 A297 RMK A01 T01400071  RH  063%=      5-min Rain = 0
KOD1 181811Z 19010KT 14/07 A297 RMK A01 T01410071  RH  063%=      5-min Rain = 0
KOD1 181812Z 19009KT 14/07 A297 RMK A01 T01410071  RH  063%=      5-min Rain = 0
KOD1 181813Z 18011KT 14/07 A297 RMK A01 T01410073  RH  063%=      5-min Rain = 0
KOD1 181814Z 19012KT 14/07 A297 RMK A01 T01410072  RH  063%=      5-min Rain = 0
KOD1 181815Z 19013KT 14/07 A2969 RMK A01 T01430071  RH  062%=      5-min Rain = 0
KOD1 181816Z 18010KT 15/08 A2969 RMK A01 T01450075  RH  063%=      5-min Rain = 0
KOD1 181817Z 19012KT 15/07 A2969 RMK A01 T01480074  RH  061%=      5-min Rain = 0
KOD1 181818Z 18011KT 15/07 A2969 RMK A01 T01490073  RH  060%=      5-min Rain = 0
KOD1 181819Z 19009KT 15/07 A2969 RMK A01 T01510074  RH  060%=      5-min Rain = 0
KOD1 181820Z 19011KT 15/07 A2969 RMK A01 T01510072  RH  059%=      5-min Rain = 0
KOD1 181821Z 19012KT 15/07 A2969 RMK A01 T01520074  RH  060%=      5-min Rain = 0
KOD1 181822Z 20011KT 15/07 A2968 RMK A01 T01540074  RH  059%=      5-min Rain = 0
KOD1 181823Z 18012KT 16/07 A2968 RMK A01 T01550073  RH  058%=      5-min Rain = 0
KOD1 181824Z 19013KT 16/07 A2968 RMK A01 T01560073  RH  058%=      5-min Rain = 0
KOD1 181825Z 19012KT 16/07 A2968 RMK A01 T01560071  RH  057%=      5-min Rain = 0
KOD1 181826Z 18013KT 16/07 A2968 RMK A01 T01570073  RH  057%=      5-min Rain = 0
KOD1 181827Z 18013KT 16/07 A2968 RMK A01 T01570071  RH  057%=      5-min Rain = 0
KOD1 181828Z 18013KT 16/07 A2968 RMK A01 T01580073  RH  057%=      5-min Rain = 0
KOD1 181829Z 20011KT 16/08 A2968 RMK A01 T01590076  RH  058%=      5-min Rain = 0
KOD1 181830Z 19011KT 16/07 A2968 RMK A01 T01600074  RH  056%=      5-min Rain = 0
KOD1 181831Z 18013KT 16/07 A2967 RMK A01 T01610072  RH  056%=      5-min Rain = 0
KOD1 181832Z 19013KT 16/07 A2967 RMK A01 T01610071  RH  055%=      5-min Rain = 0
KOD1 181833Z 18012KT 16/07 A2967 RMK A01 T01620073  RH  056%=      5-min Rain = 0
KOD1 181834Z 18016KT 16/07 A2967 RMK A01 T01620071  RH  055%=      5-min Rain = 0
KOD1 181835Z 19015KT 16/07 A2967 RMK A01 T01620070  RH  054%=      5-min Rain = 0
KOD1 181836Z 19015KT 16/07 A2967 RMK A01 T01620071  RH  055%=      5-min Rain = 0
KOD1 181837Z 19017KT 16/07 A2967 RMK A01 T01630071  RH  054%=      5-min Rain = 0
KOD1 181838Z 18015KT 16/07 A2966 RMK A01 T01630070  RH  054%=      5-min Rain = 0
KOD1 181839Z 18016KT 16/07 A2966 RMK A01 T01630071  RH  054%=      5-min Rain = 0
KOD1 181840Z 19013KT 17/07 A2966 RMK A01 T01650074  RH  055%=      5-min Rain = 0
KOD1 181841Z 19012KT 17/08 A2966 RMK A01 T01670075  RH  054%=      5-min Rain = 0
KOD1 181842Z 18013KT 17/07 A2966 RMK A01 T01680072  RH  053%=      5-min Rain = 0
KOD1 181843Z 18016KT 17/07 A2966 RMK A01 T01670071  RH  053%=      5-min Rain = 0
KOD1 181844Z 19016KT 17/07 A2966 RMK A01 T01680073  RH  054%=      5-min Rain = 0
KOD1 181845Z 18015KT 17/07 A2966 RMK A01 T01680073  RH  053%=      5-min Rain = 0
KOD1 181846Z 18017KT 17/07 A2966 RMK A01 T01690074  RH  053%=      5-min Rain = 0
KOD1 181847Z 18015KT 17/07 A2966 RMK A01 T01690073  RH  053%=      5-min Rain = 0
KOD1 181848Z 19016KT 17/07 A2966 RMK A01 T01700073  RH  053%=      5-min Rain = 0
KOD1 181849Z 19015KT 17/07 A2965 RMK A01 T01710074  RH  053%=      5-min Rain = 0
KOD1 181850Z 18016KT 17/07 A2965 RMK A01 T01720072  RH  052%=      5-min Rain = 0
KOD1 181851Z 18015KT 17/07 A2965 RMK A01 T01720071  RH  052%=      5-min Rain = 0
KOD1 181852Z 18015KT 17/07 A2965 RMK A01 T01730072  RH  051%=      5-min Rain = 0
KOD1 181853Z 19016KT 17/07 A2965 RMK A01 T01740072  RH  051%=      5-min Rain = 0
KOD1 181854Z 19016KT 18/07 A2965 RMK A01 T01750069  RH  050%=      5-min Rain = 0
KOD1 181855Z 18014KT 18/07 A2965 RMK A01 T01750074  RH  051%=      5-min Rain = 0
KOD1 181856Z 19015KT 18/07 A2965 RMK A01 T01770071  RH  050%=      5-min Rain = 0
KOD1 181857Z 19016KT 18/07 A2965 RMK A01 T01780070  RH  049%=      5-min Rain = 0
KOD1 181858Z 19014KT 18/07 A2964 RMK A01 T01780070  RH  049%=      5-min Rain = 0
KOD1 181859Z 18014KT 18/07 A2964 RMK A01 T01790072  RH  049%=      5-min Rain = 0
KOD1 181900Z 19015KT 18/07 A2964 RMK A01 T01800073  RH  050%=      5-min Rain = 0
KOD1 181901Z 19013KT 18/07 A2964 RMK A01 T01810069  RH  048%=      5-min Rain = 0
KOD1 181902Z 18014KT 18/07 A2964 RMK A01 T01810072  RH  049%=      5-min Rain = 0
KOD1 181903Z 19013KT 18/07 A2964 RMK A01 T01820073  RH  049%=      5-min Rain = 0
KOD1 181904Z 18015KT 18/07 A2964 RMK A01 T01830069  RH  047%=      5-min Rain = 0
KOD1 181905Z 19013KT 18/07 A2964 RMK A01 T01830068  RH  047%=      5-min Rain = 0
KOD1 181906Z 20015KT 19/07 A2964 RMK A01 T01850067  RH  046%=      5-min Rain = 0
KOD1 181907Z 19014KT 19/07 A2964 RMK A01 T01860068  RH  046%=      5-min Rain = 0
KOD1 181908Z 19016KT 19/07 A2964 RMK A01 T01850065  RH  045%=      5-min Rain = 0
KOD1 181909Z 19016KT 18/07 A2964 RMK A01 T01840066  RH  046%=      5-min Rain = 0
KOD1 181910Z 18015KT 18/07 A2963 RMK A01 T01830069  RH  047%=      5-min Rain = 0
KOD1 181911Z 18013KT 18/07 A2963 RMK A01 T01830071  RH  048%=      5-min Rain = 0
KOD1 181912Z 18015KT 18/07 A2963 RMK A01 T01820071  RH  048%=      5-min Rain = 0
KOD1 181913Z 17016KT 18/07 A2963 RMK A01 T01820071  RH  048%=      5-min Rain = 0
KOD1 181914Z 17014KT 18/07 A2963 RMK A01 T01830072  RH  049%=      5-min Rain = 0
KOD1 181915Z 18015KT 19/08 A2963 RMK A01 T01850075  RH  049%=      5-min Rain = 0
KOD1 181916Z 18016KT 19/07 A2962 RMK A01 T01850072  RH  048%=      5-min Rain = 0
KOD1 181917Z 18019KT 19/07 A2962 RMK A01 T01850071  RH  047%=      5-min Rain = 0
KOD1 181918Z 18016KT 18/07 A2962 RMK A01 T01840071  RH  048%=      5-min Rain = 0
KOD1 181919Z 18016KT 18/07 A2962 RMK A01 T01840071  RH  048%=      5-min Rain = 0
KOD1 181920Z 18015KT 19/07 A2962 RMK A01 T01850071  RH  048%=      5-min Rain = 0
KOD1 181921Z 19016KT 19/07 A2962 RMK A01 T01850067  RH  046%=      5-min Rain = 0
KOD1 181922Z 18016KT 18/07 A2962 RMK A01 T01840069  RH  047%=      5-min Rain = 0
KOD1 181923Z 19015KT 18/07 A2962 RMK A01 T01840069  RH  047%=      5-min Rain = 0
KOD1 181924Z 18015KT 19/07 A2962 RMK A01 T01850070  RH  047%=      5-min Rain = 0
KOD1 181925Z 19017KT 19/07 A2962 RMK A01 T01860065  RH  045%=      5-min Rain = 0
KOD1 181926Z 19016KT 19/06 A2961 RMK A01 T01870064  RH  045%=      5-min Rain = 0
KOD1 181927Z 18015KT 19/07 A2961 RMK A01 T01880065  RH  045%=      5-min Rain = 0
KOD1 181928Z 19014KT 19/07 A2962 RMK A01 T01880067  RH  045%=      5-min Rain = 0
KOD1 181929Z 19015KT 19/07 A2961 RMK A01 T01880068  RH  045%=      5-min Rain = 0
KOD1 181930Z 19016KT 19/07 A2961 RMK A01 T01880065  RH  045%=      5-min Rain = 0
KOD1 181931Z 19018KT 19/06 A2961 RMK A01 T01880063  RH  044%=      5-min Rain = 0
KOD1 181932Z 19016KT 19/07 A2961 RMK A01 T01890065  RH  044%=      5-min Rain = 0
KOD1 181933Z 19017KT 19/06 A2961 RMK A01 T01900062  RH  043%=      5-min Rain = 0
KOD1 181934Z 19019KT 19/06 A2961 RMK A01 T01900063  RH  043%=      5-min Rain = 0
KOD1 181935Z 19017KT 19/06 A2961 RMK A01 T01900064  RH  044%=      5-min Rain = 0
KOD1 181936Z 19016KT 19/07 A2961 RMK A01 T01910065  RH  044%=      5-min Rain = 0
KOD1 181937Z 19015KT 19/07 A2961 RMK A01 T01930066  RH  044%=      5-min Rain = 0
KOD1 181938Z 19016KT 19/06 A2961 RMK A01 T01940064  RH  043%=      5-min Rain = 0
KOD1 181939Z 18016KT 20/07 A2961 RMK A01 T01950066  RH  043%=      5-min Rain = 0
KOD1 181940Z 18018KT 20/07 A296 RMK A01 T01950065  RH  043%=      5-min Rain = 0
KOD1 181941Z 19020KT 19/06 A296 RMK A01 T01930060  RH  042%=      5-min Rain = 0
KOD1 181942Z 19018KT 19/06 A296 RMK A01 T01930062  RH  042%=      5-min Rain = 0
KOD1 181943Z 19015KT 20/06 A296 RMK A01 T01950064  RH  042%=      5-min Rain = 0
KOD1 181944Z 18016KT 20/07 A296 RMK A01 T01970065  RH  042%=      5-min Rain = 0
KOD1 181945Z 19017KT 20/06 A296 RMK A01 T01970061  RH  041%=      5-min Rain = 0
KOD1 181946Z 19018G23KT 20/06 A2959 RMK A01 T01960060  RH  041%=      5-min Rain = 0
KOD1 181947Z 19022KT 20/06 A2959 RMK A01 T01960057  RH  040%=      5-min Rain = 0
KOD1 181948Z 19019KT 20/06 A2959 RMK A01 T01950055  RH  040%=      5-min Rain = 0
KOD1 181949Z 18017KT 19/06 A2959 RMK A01 T01940058  RH  041%=      5-min Rain = 0
KOD1 181950Z 18017KT 20/07 A2959 RMK A01 T01950066  RH  043%=      5-min Rain = 0
KOD1 181951Z 18018KT 20/07 A2959 RMK A01 T01960067  RH  043%=      5-min Rain = 0
KOD1 181952Z 19015KT 20/07 A2959 RMK A01 T01970069  RH  043%=      5-min Rain = 0
KOD1 181953Z 19019KT 20/06 A2959 RMK A01 T01990062  RH  041%=      5-min Rain = 0
KOD1 181954Z 19018KT 20/06 A2959 RMK A01 T01980062  RH  041%=      5-min Rain = 0
KOD1 181955Z 19019KT 20/06 A2958 RMK A01 T01970059  RH  041%=      5-min Rain = 0
KOD1 181956Z 19020KT 20/06 A2958 RMK A01 T01960059  RH  041%=      5-min Rain = 0
KOD1 181957Z 19020KT 20/06 A2958 RMK A01 T01950060  RH  041%=      5-min Rain = 0
KOD1 181958Z 19018KT 19/06 A2958 RMK A01 T01940061  RH  042%=      5-min Rain = 0
KOD1 181959Z 19018G24KT 19/06 A2958 RMK A01 T01940063  RH  042%=      5-min Rain = 0
KOD1 182000Z 19021KT 20/06 A2958 RMK A01 T01950057  RH  041%=      5-min Rain = 0
KOD1 182001Z 19020KT 20/06 A2958 RMK A01 T01950058  RH  041%=      5-min Rain = 0
KOD1 182002Z 19020KT 20/06 A2958 RMK A01 T01950057  RH  040%=      5-min Rain = 0
KOD1 182003Z 19021G27KT 20/06 A2958 RMK A01 T01950057  RH  040%=      5-min Rain = 0
KOD1 182004Z 19022KT 20/06 A2958 RMK A01 T01950056  RH  040%=      5-min Rain = 0
KOD1 182005Z 19021KT 20/06 A2958 RMK A01 T01960057  RH  040%=      5-min Rain = 0
KOD1 182006Z 19022KT 20/06 A2958 RMK A01 T01960057  RH  040%=      5-min Rain = 0
KOD1 182007Z 19019KT 20/06 A2958 RMK A01 T01970058  RH  040%=      5-min Rain = 0
KOD1 182008Z 19019KT 20/06 A2958 RMK A01 T01990061  RH  041%=      5-min Rain = 0
KOD1 182009Z 18018KT 20/06 A2958 RMK A01 T02010061  RH  040%=      5-min Rain = 0
KOD1 182010Z 19020KT 20/06 A2958 RMK A01 T02010059  RH  039%=      5-min Rain = 0
KOD1 182011Z 19021KT 20/06 A2958 RMK A01 T02020058  RH  039%=      5-min Rain = 0
KOD1 182012Z 19021KT 20/06 A2958 RMK A01 T02020056  RH  038%=      5-min Rain = 0
KOD1 182013Z 19020KT 20/06 A2958 RMK A01 T02030057  RH  038%=      5-min Rain = 0
KOD1 182014Z 19019KT 20/06 A2958 RMK A01 T02040057  RH  038%=      5-min Rain = 0
KOD1 182015Z 19022KT 20/06 A2958 RMK A01 T02040056  RH  038%=      5-min Rain = 0
KOD1 182016Z 19021KT 20/06 A2958 RMK A01 T02030055  RH  038%=      5-min Rain = 0
KOD1 182017Z 19018KT 20/06 A2958 RMK A01 T02030056  RH  038%=      5-min Rain = 0
KOD1 182018Z 19017G24KT 20/06 A2958 RMK A01 T02020058  RH  039%=      5-min Rain = 0
KOD1 182019Z 19017KT 20/06 A2958 RMK A01 T02010059  RH  039%=      5-min Rain = 0
KOD1 182020Z 19018KT 20/06 A2958 RMK A01 T02010058  RH  039%=      5-min Rain = 0
KOD1 182021Z 19019KT 20/06 A2958 RMK A01 T02010057  RH  039%=      5-min Rain = 0
KOD1 182022Z 18016KT 20/06 A2958 RMK A01 T02020059  RH  039%=      5-min Rain = 0
KOD1 182023Z 19015G22KT 20/06 A2958 RMK A01 T02030061  RH  039%=      5-min Rain = 0
KOD1 182024Z 19018KT 20/06 A2957 RMK A01 T02040056  RH  038%=      5-min Rain = 0
KOD1 182025Z 18018KT 21/06 A2958 RMK A01 T02050058  RH  038%=      5-min Rain = 0
KOD1 182026Z 18018KT 21/06 A2957 RMK A01 T02050057  RH  038%=      5-min Rain = 0
KOD1 182027Z 19018KT 21/06 A2957 RMK A01 T02050057  RH  038%=      5-min Rain = 0
KOD1 182028Z 18018KT 21/06 A2957 RMK A01 T02060056  RH  037%=      5-min Rain = 0
KOD1 182029Z 18017KT 21/06 A2957 RMK A01 T02080056  RH  037%=      5-min Rain = 0
KOD1 182030Z 18018KT 21/06 A2957 RMK A01 T02090056  RH  037%=      5-min Rain = 0
KOD1 182031Z 18017KT 21/05 A2957 RMK A01 T02090054  RH  036%=      5-min Rain = 0
KOD1 182032Z 18015KT 21/05 A2957 RMK A01 T02090054  RH  036%=      5-min Rain = 0
KOD1 182033Z 17018KT 21/05 A2957 RMK A01 T02100053  RH  036%=      5-min Rain = 0
KOD1 182034Z 17016KT 21/05 A2957 RMK A01 T02110053  RH  036%=      5-min Rain = 0
KOD1 182035Z 18016KT 21/05 A2957 RMK A01 T02120054  RH  036%=      5-min Rain = 0
KOD1 182036Z 18017KT 21/05 A2957 RMK A01 T02120052  RH  035%=      5-min Rain = 0
KOD1 182037Z 19016KT 21/05 A2957 RMK A01 T02120052  RH  035%=      5-min Rain = 0
KOD1 182038Z 19016KT 21/05 A2957 RMK A01 T02120050  RH  035%=      5-min Rain = 0
KOD1 182039Z 19017KT 21/05 A2956 RMK A01 T02120046  RH  034%=      5-min Rain = 0
KOD1 182040Z 18016KT 21/05 A2956 RMK A01 T02120054  RH  036%=      5-min Rain = 0
KOD1 182041Z 17016KT 21/05 A2956 RMK A01 T02120052  RH  035%=      5-min Rain = 0
KOD1 182042Z 18017KT 21/06 A2956 RMK A01 T02120055  RH  036%=      5-min Rain = 0
KOD1 182043Z 18016KT 21/06 A2956 RMK A01 T02120055  RH  036%=      5-min Rain = 0
KOD1 182044Z 18015KT 21/06 A2956 RMK A01 T02130056  RH  036%=      5-min Rain = 0
KOD1 182045Z 17015KT 21/06 A2956 RMK A01 T02130056  RH  036%=      5-min Rain = 0
KOD1 182046Z 18015KT 21/06 A2956 RMK A01 T02130057  RH  036%=      5-min Rain = 0
KOD1 182047Z 17016KT 21/05 A2956 RMK A01 T02140054  RH  035%=      5-min Rain = 0
KOD1 182048Z 18016KT 22/06 A2956 RMK A01 T02150056  RH  036%=      5-min Rain = 0
KOD1 182049Z 18016KT 22/05 A2956 RMK A01 T02150052  RH  034%=      5-min Rain = 0
KOD1 182050Z 18015KT 22/06 A2956 RMK A01 T02160056  RH  035%=      5-min Rain = 0
KOD1 182051Z 18014KT 22/06 A2956 RMK A01 T02180060  RH  036%=      5-min Rain = 0
KOD1 182052Z 18016KT 22/05 A2955 RMK A01 T02200054  RH  034%=      5-min Rain = 0
KOD1 182053Z 18017G22KT 22/05 A2955 RMK A01 T02210053  RH  033%=      5-min Rain = 0
KOD1 182054Z 19016KT 22/05 A2955 RMK A01 T02220052  RH  033%=      5-min Rain = 0
KOD1 182055Z 19016KT 22/05 A2955 RMK A01 T02220050  RH  033%=      5-min Rain = 0
KOD1 182056Z 18016KT 22/05 A2955 RMK A01 T02230052  RH  033%=      5-min Rain = 0
KOD1 182057Z 17016KT 22/05 A2955 RMK A01 T02230052  RH  033%=      5-min Rain = 0
KOD1 182058Z 18017KT 22/05 A2955 RMK A01 T02220049  RH  032%=      5-min Rain = 0
KOD1 182059Z 18017KT 22/05 A2955 RMK A01 T02210050  RH  033%=      5-min Rain = 0
KOD1 182100Z 18017KT 22/05 A2955 RMK A01 T02200049  RH  033%=      5-min Rain = 0
KOD1 182101Z 18014KT 22/05 A2955 RMK A01 T02190052  RH  034%=      5-min Rain = 0
KOD1 182102Z 18016KT 22/05 A2955 RMK A01 T02190050  RH  033%=      5-min Rain = 0
KOD1 182103Z 19018KT 22/05 A2955 RMK A01 T02180046  RH  032%=      5-min Rain = 0
KOD1 182104Z 18017KT 22/05 A2955 RMK A01 T02170047  RH  033%=      5-min Rain = 0
KOD1 182105Z 19015KT 22/05 A2955 RMK A01 T02170046  RH  033%=      5-min Rain = 0
KOD1 182106Z 19014KT 22/05 A2954 RMK A01 T02170047  RH  033%=      5-min Rain = 0
KOD1 182107Z 18015KT 22/05 A2954 RMK A01 T02170046  RH  033%=      5-min Rain = 0
KOD1 182108Z 18014KT 22/05 A2954 RMK A01 T02160048  RH  033%=      5-min Rain = 0
KOD1 182109Z 18017KT 22/05 A2954 RMK A01 T02160045  RH  033%=      5-min Rain = 0
KOD1 182110Z 19017KT 22/04 A2954 RMK A01 T02150043  RH  032%=      5-min Rain = 0
KOD1 182111Z 19015KT 22/05 A2954 RMK A01 T02150046  RH  033%=      5-min Rain = 0
KOD1 182112Z 18016KT 22/05 A2954 RMK A01 T02150045  RH  033%=      5-min Rain = 0
KOD1 182113Z 19016KT 22/05 A2954 RMK A01 T02150045  RH  033%=      5-min Rain = 0
KOD1 182114Z 19015KT 22/05 A2954 RMK A01 T02150046  RH  033%=      5-min Rain = 0
KOD1 182115Z 18014KT 22/05 A2954 RMK A01 T02160047  RH  033%=      5-min Rain = 0
KOD1 182116Z 19013KT 22/05 A2954 RMK A01 T02170048  RH  033%=      5-min Rain = 0
KOD1 182117Z 19015KT 22/05 A2954 RMK A01 T02170046  RH  033%=      5-min Rain = 0
KOD1 182118Z 19015KT 22/05 A2954 RMK A01 T02170045  RH  032%=      5-min Rain = 0
KOD1 182119Z 19014KT 22/05 A2954 RMK A01 T02170045  RH  032%=      5-min Rain = 0
KOD1 182120Z 19015KT 22/05 A2954 RMK A01 T02180046  RH  032%=      5-min Rain = 0
KOD1 182121Z 20013KT 22/05 A2954 RMK A01 T02190046  RH  032%=      5-min Rain = 0
KOD1 182122Z 19014KT 22/05 A2954 RMK A01 T02200046  RH  032%=      5-min Rain = 0
KOD1 182123Z 18015KT 22/05 A2954 RMK A01 T02210045  RH  032%=      5-min Rain = 0
KOD1 182124Z 19016KT 22/04 A2954 RMK A01 T02210043  RH  031%=      5-min Rain = 0
KOD1 182125Z 19013KT 22/05 A2954 RMK A01 T02220045  RH  032%=      5-min Rain = 0
KOD1 182126Z 19012KT 22/05 A2954 RMK A01 T02220048  RH  032%=      5-min Rain = 0
KOD1 182127Z 19013KT 22/05 A2954 RMK A01 T02230047  RH  032%=      5-min Rain = 0
KOD1 182128Z 19017KT 22/04 A2954 RMK A01 T02230043  RH  031%=      5-min Rain = 0
KOD1 182129Z 20017KT 22/04 A2954 RMK A01 T02220042  RH  031%=      5-min Rain = 0
KOD1 182130Z 20017KT 22/04 A2954 RMK A01 T02210040  RH  031%=      5-min Rain = 0
KOD1 182131Z 19016G21KT 22/04 A2955 RMK A01 T02200041  RH  031%=      5-min Rain = 0
KOD1 182132Z 20017KT 22/04 A2954 RMK A01 T02210040  RH  031%=      5-min Rain = 0
KOD1 182133Z 19014KT 22/04 A2954 RMK A01 T02200043  RH  031%=      5-min Rain = 0
KOD1 182134Z 19015KT 22/04 A2954 RMK A01 T02200043  RH  031%=      5-min Rain = 0
KOD1 182135Z 19015KT 22/04 A2954 RMK A01 T02200042  RH  031%=      5-min Rain = 0
KOD1 182136Z 19013KT 22/04 A2954 RMK A01 T02190044  RH  032%=      5-min Rain = 0
KOD1 182137Z 19013KT 22/04 A2954 RMK A01 T02190043  RH  032%=      5-min Rain = 0
KOD1 182138Z 19014KT 22/04 A2954 RMK A01 T02200041  RH  031%=      5-min Rain = 0
KOD1 182139Z 19016G21KT 22/04 A2954 RMK A01 T02200041  RH  031%=      5-min Rain = 0
KOD1 182140Z 19015KT 22/04 A2954 RMK A01 T02210040  RH  031%=      5-min Rain = 0
KOD1 182141Z 19014KT 22/04 A2954 RMK A01 T02210043  RH  031%=      5-min Rain = 0
KOD1 182142Z 19015KT 22/04 A2954 RMK A01 T02210043  RH  031%=      5-min Rain = 0
KOD1 182143Z 18016KT 22/04 A2954 RMK A01 T02210042  RH  031%=      5-min Rain = 0
KOD1 182144Z 18014KT 22/04 A2954 RMK A01 T02210041  RH  031%=      5-min Rain = 0
KOD1 182145Z 19014KT 22/04 A2954 RMK A01 T02210041  RH  031%=      5-min Rain = 0
KOD1 182146Z 18014KT 22/04 A2954 RMK A01 T02210041  RH  031%=      5-min Rain = 0
KOD1 182147Z 19016KT 22/04 A2954 RMK A01 T02210039  RH  030%=      5-min Rain = 0
KOD1 182148Z 19014KT 22/04 A2954 RMK A01 T02220040  RH  030%=      5-min Rain = 0
KOD1 182149Z 19012KT 22/04 A2954 RMK A01 T02220042  RH  031%=      5-min Rain = 0
KOD1 182150Z 19012KT 22/04 A2954 RMK A01 T02230044  RH  031%=      5-min Rain = 0
KOD1 182151Z 20012KT 22/04 A2954 RMK A01 T02230041  RH  030%=      5-min Rain = 0
KOD1 182152Z 19012KT 22/04 A2954 RMK A01 T02230043  RH  031%=      5-min Rain = 0
KOD1 182153Z 19013KT 22/04 A2954 RMK A01 T02220041  RH  031%=      5-min Rain = 0
KOD1 182154Z 19012KT 22/04 A2954 RMK A01 T02210041  RH  031%=      5-min Rain = 0
KOD1 182155Z 20011KT 22/04 A2954 RMK A01 T02210042  RH  031%=      5-min Rain = 0
KOD1 182156Z 19014KT 22/04 A2954 RMK A01 T02200040  RH  031%=      5-min Rain = 0
KOD1 182157Z 20013KT 22/04 A2954 RMK A01 T02200039  RH  031%=      5-min Rain = 0
KOD1 182158Z 20013KT 22/04 A2954 RMK A01 T02200042  RH  031%=      5-min Rain = 0
KOD1 182159Z 19013KT 22/04 A2954 RMK A01 T02200038  RH  030%=      5-min Rain = 0
KOD1 182200Z 19013KT 22/04 A2954 RMK A01 T02210039  RH  030%=      5-min Rain = 0
KOD1 182201Z 20013KT 22/04 A2954 RMK A01 T02210041  RH  031%=      5-min Rain = 0
KOD1 182202Z 20012KT 22/04 A2954 RMK A01 T02220042  RH  031%=      5-min Rain = 0
KOD1 182203Z 19014KT 22/04 A2954 RMK A01 T02210038  RH  030%=      5-min Rain = 0
KOD1 182204Z 19014KT 22/04 A2954 RMK A01 T02210038  RH  030%=      5-min Rain = 0
KOD1 182205Z 20013KT 22/04 A2954 RMK A01 T02200038  RH  030%=      5-min Rain = 0
KOD1 182206Z 20014KT 22/04 A2954 RMK A01 T02190038  RH  031%=      5-min Rain = 0
KOD1 182207Z 20013KT 22/04 A2954 RMK A01 T02190037  RH  030%=      5-min Rain = 0
KOD1 182208Z 20012KT 22/04 A2954 RMK A01 T02180039  RH  031%=      5-min Rain = 0
KOD1 182209Z 20011KT 22/04 A2954 RMK A01 T02170040  RH  031%=      5-min Rain = 0
KOD1 182210Z 20011KT 22/04 A2954 RMK A01 T02160041  RH  032%=      5-min Rain = 0
KOD1 182211Z 21010KT 22/04 A2954 RMK A01 T02150042  RH  032%=      5-min Rain = 0
KOD1 182212Z 21010KT 21/04 A2954 RMK A01 T02140042  RH  032%=      5-min Rain = 0
KOD1 182213Z 21009KT 21/04 A2954 RMK A01 T02130043  RH  033%=      5-min Rain = 0
KOD1 182214Z 22009KT 21/04 A2954 RMK A01 T02130043  RH  033%=      5-min Rain = 0
KOD1 182215Z 22009KT 21/04 A2954 RMK A01 T02130041  RH  032%=      5-min Rain = 0
KOD1 182216Z 22009KT 21/04 A2954 RMK A01 T02130042  RH  033%=      5-min Rain = 0
KOD1 182217Z 22008KT 21/04 A2954 RMK A01 T02130043  RH  033%=      5-min Rain = 0
KOD1 182218Z 23009KT 21/04 A2954 RMK A01 T02130043  RH  033%=      5-min Rain = 0
KOD1 182219Z 23009KT 21/04 A2954 RMK A01 T02130041  RH  032%=      5-min Rain = 0
KOD1 182220Z 23008KT 21/04 A2954 RMK A01 T02130042  RH  033%=      5-min Rain = 0
KOD1 182221Z 23009KT 21/04 A2954 RMK A01 T02130042  RH  033%=      5-min Rain = 0
KOD1 182222Z 23009KT 21/04 A2954 RMK A01 T02140041  RH  032%=      5-min Rain = 0
KOD1 182223Z 22012KT 21/04 A2954 RMK A01 T02140038  RH  031%=      5-min Rain = 0
KOD1 182224Z 23011KT 22/04 A2954 RMK A01 T02150036  RH  031%=      5-min Rain = 0
KOD1 182225Z 22011KT 22/04 A2954 RMK A01 T02160037  RH  031%=      5-min Rain = 0
KOD1 182226Z 23010KT 22/04 A2954 RMK A01 T02160040  RH  032%=      5-min Rain = 0
KOD1 182227Z 23010KT 22/04 A2954 RMK A01 T02150041  RH  032%=      5-min Rain = 0
KOD1 182228Z 23011KT 21/04 A2954 RMK A01 T02140041  RH  032%=      5-min Rain = 0
KOD1 182229Z 24010KT 21/04 A2954 RMK A01 T02140039  RH  032%=      5-min Rain = 0
KOD1 182230Z 24011KT 21/04 A2954 RMK A01 T02140037  RH  031%=      5-min Rain = 0
KOD1 182231Z 25012KT 22/03 A2954 RMK A01 T02150029  RH  029%=      5-min Rain = 0
KOD1 182232Z 26012KT 22/03 A2954 RMK A01 T02180026  RH  028%=      5-min Rain = 0
KOD1 182233Z 26012KT 22/03 A2954 RMK A01 T02190026  RH  028%=      5-min Rain = 0
KOD1 182234Z 26013KT 22/02 A2954 RMK A01 T02210021  RH  027%=      5-min Rain = 0
KOD1 182235Z 26015KT 22/02 A2954 RMK A01 T02220019  RH  026%=      5-min Rain = 0
KOD1 182236Z 26018KT 22/01 A2953 RMK A01 T02240014  RH  025%=      5-min Rain = 0
KOD1 182237Z 25013KT 23/02 A2954 RMK A01 T02250018  RH  025%=      5-min Rain = 0
KOD1 182238Z 25018KT 23/02 A2954 RMK A01 T02250015  RH  025%=      5-min Rain = 0
KOD1 182239Z 26017KT 23/01 A2954 RMK A01 T02250013  RH  025%=      5-min Rain = 0
KOD1 182240Z 26016KT 23/01 A2954 RMK A01 T02250014  RH  025%=      5-min Rain = 0
KOD1 182241Z 26014KT 23/01 A2954 RMK A01 T02250014  RH  025%=      5-min Rain = 0
KOD1 182242Z 26012KT 22/02 A2954 RMK A01 T02240015  RH  025%=      5-min Rain = 0
KOD1 182243Z 26015KT 22/01 A2954 RMK A01 T02230014  RH  025%=      5-min Rain = 0
KOD1 182244Z 25014KT 22/02 A2954 RMK A01 T02230015  RH  025%=      5-min Rain = 0
KOD1 182245Z 25016KT 22/02 A2954 RMK A01 T02220016  RH  026%=      5-min Rain = 0
KOD1 182246Z 25015KT 22/02 A2954 RMK A01 T02220017  RH  026%=      5-min Rain = 0
KOD1 182247Z 25015KT 22/02 A2954 RMK A01 T02200017  RH  026%=      5-min Rain = 0
KOD1 182248Z 25015KT 22/02 A2954 RMK A01 T02190017  RH  026%=      5-min Rain = 0
KOD1 182249Z 25015KT 22/02 A2954 RMK A01 T02180017  RH  026%=      5-min Rain = 0
KOD1 182250Z 25015KT 22/02 A2954 RMK A01 T02170017  RH  027%=      5-min Rain = 0
KOD1 182251Z 25015KT 22/02 A2954 RMK A01 T02160016  RH  027%=      5-min Rain = 0
KOD1 182252Z 25016KT 22/02 A2954 RMK A01 T02150016  RH  027%=      5-min Rain = 0
KOD1 182253Z 25016KT 22/02 A2954 RMK A01 T02150015  RH  027%=      5-min Rain = 0
KOD1 182254Z 25015KT 21/02 A2954 RMK A01 T02140015  RH  027%=      5-min Rain = 0
KOD1 182255Z 25015KT 21/01 A2954 RMK A01 T02140014  RH  027%=      5-min Rain = 0
KOD1 182256Z 25014KT 21/02 A2954 RMK A01 T02140015  RH  027%=      5-min Rain = 0
KOD1 182257Z 24015KT 21/02 A2954 RMK A01 T02130015  RH  027%=      5-min Rain = 0
KOD1 182258Z 24014KT 21/01 A2954 RMK A01 T02130014  RH  027%=      5-min Rain = 0
KOD1 182259Z 24013KT 21/02 A2954 RMK A01 T02120015  RH  027%=      5-min Rain = 0
KOD1 182300Z 24013KT 21/02 A2954 RMK A01 T02120016  RH  027%=      5-min Rain = 0
KOD1 182301Z 24013KT 21/02 A2954 RMK A01 T02110016  RH  027%=      5-min Rain = 0
KOD1 182302Z 25014KT 21/02 A2954 RMK A01 T02110016  RH  027%=      5-min Rain = 0
KOD1 182303Z 24013KT 21/02 A2954 RMK A01 T02100016  RH  028%=      5-min Rain = 0
KOD1 182304Z 24012KT 21/02 A2954 RMK A01 T02100017  RH  028%=      5-min Rain = 0
KOD1 182305Z 24014KT 21/02 A2954 RMK A01 T02090016  RH  028%=      5-min Rain = 0
KOD1 182306Z 24013KT 21/02 A2954 RMK A01 T02090016  RH  028%=      5-min Rain = 0
KOD1 182307Z 24014KT 21/02 A2954 RMK A01 T02090016  RH  028%=      5-min Rain = 0
KOD1 182308Z 24013KT 21/02 A2954 RMK A01 T02090018  RH  028%=      5-min Rain = 0
KOD1 182309Z 24013KT 21/02 A2954 RMK A01 T02080018  RH  028%=      5-min Rain = 0
KOD1 182310Z 24013KT 21/02 A2953 RMK A01 T02070018  RH  029%=      5-min Rain = 0
KOD1 182311Z 24013KT 21/02 A2953 RMK A01 T02070018  RH  029%=      5-min Rain = 0
KOD1 182312Z 24013KT 21/02 A2953 RMK A01 T02060020  RH  029%=      5-min Rain = 0
KOD1 182313Z 24012KT 21/02 A2953 RMK A01 T02050020  RH  029%=      5-min Rain = 0
KOD1 182314Z 24013KT 20/02 A2954 RMK A01 T02040020  RH  030%=      5-min Rain = 0
KOD1 182315Z 24014KT 20/02 A2953 RMK A01 T02030020  RH  030%=      5-min Rain = 0
KOD1 182316Z 23014KT 20/02 A2953 RMK A01 T02030021  RH  030%=      5-min Rain = 0
KOD1 182317Z 24013KT 20/02 A2953 RMK A01 T02030022  RH  030%=      5-min Rain = 0
KOD1 182318Z 24014KT 20/02 A2954 RMK A01 T02020023  RH  030%=      5-min Rain = 0
KOD1 182319Z 23014KT 20/02 A2953 RMK A01 T02010022  RH  030%=      5-min Rain = 0
KOD1 182320Z 24014KT 20/02 A2953 RMK A01 T02020021  RH  030%=      5-min Rain = 0
KOD1 182321Z 24013KT 20/02 A2953 RMK A01 T02020023  RH  031%=      5-min Rain = 0
KOD1 182322Z 23013KT 20/02 A2953 RMK A01 T02010023  RH  031%=      5-min Rain = 0
KOD1 182323Z 24012KT 20/02 A2953 RMK A01 T02000023  RH  031%=      5-min Rain = 0
KOD1 182324Z 24012KT 20/03 A2954 RMK A01 T01990025  RH  031%=      5-min Rain = 0
KOD1 182325Z 24013KT 20/02 A2954 RMK A01 T01980024  RH  031%=      5-min Rain = 0
KOD1 182326Z 24013KT 20/03 A2954 RMK A01 T01980025  RH  032%=      5-min Rain = 0
KOD1 182327Z 24012KT 20/02 A2954 RMK A01 T01970024  RH  032%=      5-min Rain = 0
KOD1 182328Z 24013KT 20/02 A2954 RMK A01 T01970024  RH  032%=      5-min Rain = 0
KOD1 182329Z 24011KT 20/02 A2954 RMK A01 T01970024  RH  032%=      5-min Rain = 0
KOD1 182330Z 24013KT 20/03 A2954 RMK A01 T01960025  RH  032%=      5-min Rain = 0
KOD1 182331Z 24013KT 20/02 A2954 RMK A01 T01960024  RH  032%=      5-min Rain = 0
KOD1 182332Z 24013KT 20/02 A2954 RMK A01 T01960024  RH  032%=      5-min Rain = 0
KOD1 182333Z 24013KT 20/02 A2954 RMK A01 T01960023  RH  032%=      5-min Rain = 0
KOD1 182334Z 24013KT 20/02 A2954 RMK A01 T01960023  RH  032%=      5-min Rain = 0
KOD1 182335Z 24012KT 20/02 A2954 RMK A01 T01960023  RH  032%=      5-min Rain = 0
KOD1 182336Z 24012KT 20/02 A2954 RMK A01 T01960023  RH  032%=      5-min Rain = 0
KOD1 182337Z 24011KT 20/02 A2954 RMK A01 T01950024  RH  032%=      5-min Rain = 0
KOD1 182338Z 25011KT 19/02 A2954 RMK A01 T01940024  RH  032%=      5-min Rain = 0
KOD1 182339Z 25010KT 19/02 A2954 RMK A01 T01930023  RH  032%=      5-min Rain = 0
KOD1 182340Z 25011KT 19/02 A2955 RMK A01 T01930022  RH  032%=      5-min Rain = 0
KOD1 182341Z 25010KT 19/02 A2955 RMK A01 T01930022  RH  032%=      5-min Rain = 0
KOD1 182342Z 25010KT 19/02 A2955 RMK A01 T01930022  RH  032%=      5-min Rain = 0
KOD1 182343Z 25012KT 19/02 A2955 RMK A01 T01930020  RH  032%=      5-min Rain = 0
KOD1 182344Z 25012KT 19/02 A2955 RMK A01 T01930020  RH  032%=      5-min Rain = 0
KOD1 182345Z 25012KT 19/02 A2955 RMK A01 T01940021  RH  032%=      5-min Rain = 0
KOD1 182346Z 25012KT 19/02 A2955 RMK A01 T01940021  RH  032%=      5-min Rain = 0
KOD1 182347Z 25012KT 19/02 A2955 RMK A01 T01940022  RH  032%=      5-min Rain = 0
KOD1 182348Z 25011KT 19/02 A2955 RMK A01 T01930021  RH  032%=      5-min Rain = 0
KOD1 182349Z 25011KT 19/02 A2955 RMK A01 T01920021  RH  032%=      5-min Rain = 0
KOD1 182350Z 25011KT 19/02 A2955 RMK A01 T01920021  RH  032%=      5-min Rain = 0
KOD1 182351Z 25011KT 19/02 A2955 RMK A01 T01920021  RH  032%=      5-min Rain = 0
KOD1 182352Z 25010KT 19/02 A2955 RMK A01 T01920021  RH  032%=      5-min Rain = 0
KOD1 182353Z 25010KT 19/02 A2955 RMK A01 T01910022  RH  032%=      5-min Rain = 0
KOD1 182354Z 25009KT 19/02 A2955 RMK A01 T01900022  RH  033%=      5-min Rain = 0
KOD1 182355Z 25009KT 19/02 A2955 RMK A01 T01890023  RH  033%=      5-min Rain = 0
KOD1 182356Z 25009KT 19/02 A2955 RMK A01 T01880023  RH  033%=      5-min Rain = 0
KOD1 182357Z 24009KT 19/02 A2955 RMK A01 T01880023  RH  033%=      5-min Rain = 0
KOD1 182358Z 24009KT 19/02 A2955 RMK A01 T01870023  RH  034%=      5-min Rain = 0
KOD1 182359Z 24009KT 19/02 A2955 RMK A01 T01860023  RH  034%=      5-min Rain = 0
KOD1 190000Z 24009KT 19/02 A2955 RMK A01 T01850024  RH  034%=      5-min Rain = 0
KOD1 190001Z 24009KT 18/02 A2955 RMK A01 T01840024  RH  034%=      5-min Rain = 0
KOD1 190002Z 25009KT 18/02 A2955 RMK A01 T01840022  RH  034%=      5-min Rain = 0
KOD1 190003Z 25008KT 18/03 A2955 RMK A01 T01840025  RH  034%=      5-min Rain = 0
KOD1 190004Z 25008KT 18/02 A2955 RMK A01 T01830023  RH  034%=      5-min Rain = 0
KOD1 190005Z 24008KT 18/02 A2955 RMK A01 T01820023  RH  035%=      5-min Rain = 0
KOD1 190006Z 25008KT 18/02 A2955 RMK A01 T01810024  RH  035%=      5-min Rain = 0
KOD1 190007Z 25009KT 18/02 A2955 RMK A01 T01810019  RH  034%=      5-min Rain = 0
KOD1 190008Z 25008KT 18/02 A2955 RMK A01 T01820020  RH  034%=      5-min Rain = 0
KOD1 190009Z 25009KT 18/02 A2955 RMK A01 T01820019  RH  033%=      5-min Rain = 0
KOD1 190010Z 26009KT 18/02 A2955 RMK A01 T01830018  RH  033%=      5-min Rain = 0
KOD1 190011Z 25009KT 18/02 A2955 RMK A01 T01830018  RH  033%=      5-min Rain = 0
KOD1 190012Z 26010KT 18/02 A2955 RMK A01 T01840018  RH  033%=      5-min Rain = 0
KOD1 190013Z 26011KT 18/02 A2955 RMK A01 T01840016  RH  032%=      5-min Rain = 0
KOD1 190014Z 26011KT 19/02 A2955 RMK A01 T01850015  RH  032%=      5-min Rain = 0
KOD1 190015Z 26010KT 19/02 A2955 RMK A01 T01870015  RH  032%=      5-min Rain = 0
KOD1 190016Z 26011KT 19/02 A2955 RMK A01 T01870016  RH  032%=      5-min Rain = 0
KOD1 190017Z 26011KT 19/02 A2955 RMK A01 T01880015  RH  031%=      5-min Rain = 0
KOD1 190018Z 25011KT 19/02 A2955 RMK A01 T01890016  RH  031%=      5-min Rain = 0
KOD1 190019Z 26011KT 19/02 A2955 RMK A01 T01890016  RH  031%=      5-min Rain = 0
KOD1 190020Z 26011KT 19/02 A2955 RMK A01 T01890016  RH  031%=      5-min Rain = 0
KOD1 190021Z 26011KT 19/02 A2955 RMK A01 T01890017  RH  032%=      5-min Rain = 0
KOD1 190022Z 26012KT 19/02 A2955 RMK A01 T01900016  RH  031%=      5-min Rain = 0
KOD1 190023Z 25011KT 19/02 A2955 RMK A01 T01900017  RH  031%=      5-min Rain = 0
KOD1 190024Z 25010KT 19/02 A2955 RMK A01 T01900018  RH  032%=      5-min Rain = 0
KOD1 190025Z 25010KT 19/02 A2955 RMK A01 T01890018  RH  032%=      5-min Rain = 0
KOD1 190026Z 25011KT 19/02 A2955 RMK A01 T01880019  RH  032%=      5-min Rain = 0
KOD1 190027Z 25011KT 19/02 A2956 RMK A01 T01880018  RH  032%=      5-min Rain = 0
KOD1 190028Z 25011KT 19/02 A2956 RMK A01 T01880019  RH  032%=      5-min Rain = 0
KOD1 190029Z 25011KT 19/02 A2956 RMK A01 T01870019  RH  033%=      5-min Rain = 0
KOD1 190030Z 25011KT 19/02 A2956 RMK A01 T01860019  RH  033%=      5-min Rain = 0
KOD1 190031Z 25010KT 19/02 A2956 RMK A01 T01860019  RH  033%=      5-min Rain = 0
KOD1 190032Z 25011KT 19/02 A2956 RMK A01 T01850019  RH  033%=      5-min Rain = 0
KOD1 190033Z 25010KT 19/02 A2956 RMK A01 T01850019  RH  033%=      5-min Rain = 0
KOD1 190034Z 24010KT 18/02 A2956 RMK A01 T01840019  RH  033%=      5-min Rain = 0
KOD1 190035Z 24011KT 18/02 A2956 RMK A01 T01840019  RH  033%=      5-min Rain = 0
KOD1 190036Z 24011KT 18/02 A2956 RMK A01 T01830020  RH  034%=      5-min Rain = 0
KOD1 190037Z 24011KT 18/02 A2956 RMK A01 T01820020  RH  034%=      5-min Rain = 0
KOD1 190038Z 24011KT 18/02 A2956 RMK A01 T01810022  RH  034%=      5-min Rain = 0
KOD1 190039Z 24011KT 18/02 A2956 RMK A01 T01800022  RH  035%=      5-min Rain = 0
KOD1 190040Z 24011KT 18/02 A2956 RMK A01 T01790023  RH  035%=      5-min Rain = 0
KOD1 190041Z 24011KT 18/03 A2956 RMK A01 T01780025  RH  036%=      5-min Rain = 0
KOD1 190042Z 24010KT 18/03 A2956 RMK A01 T01770026  RH  036%=      5-min Rain = 0
KOD1 190043Z 23009KT 18/03 A2956 RMK A01 T01760029  RH  037%=      5-min Rain = 0
KOD1 190044Z 23009KT 17/03 A2956 RMK A01 T01740031  RH  039%=      5-min Rain = 0
KOD1 190045Z 23010KT 17/03 A2956 RMK A01 T01710032  RH  039%=      5-min Rain = 0
KOD1 190046Z 23010KT 17/03 A2956 RMK A01 T01690031  RH  040%=      5-min Rain = 0
KOD1 190047Z 24010KT 17/03 A2956 RMK A01 T01680031  RH  040%=      5-min Rain = 0
KOD1 190048Z 24009KT 17/03 A2956 RMK A01 T01670032  RH  040%=      5-min Rain = 0
KOD1 190049Z 24009KT 17/03 A2956 RMK A01 T01660033  RH  041%=      5-min Rain = 0
KOD1 190050Z 27009KT 17/03 A2957 RMK A01 T01650032  RH  041%=      5-min Rain = 0
KOD1 190051Z 32016KT 16/03 A2959 RMK A01 T01640031  RH  041%=      5-min Rain = 0
KOD1 190052Z 33021KT 16/04 A296 RMK A01 T01640040  RH  044%=      5-min Rain = 0
KOD1 190053Z 34023KT 16/05 A296 RMK A01 T01610049  RH  047%=      5-min Rain = 0
KOD1 190054Z 34024KT 16/05 A296 RMK A01 T01560049  RH  049%=      5-min Rain = 0
KOD1 190055Z 33019KT 15/05 A296 RMK A01 T01530050  RH  050%=      5-min Rain = 0
KOD1 190056Z 33021G26KT 15/05 A2961 RMK A01 T01490048  RH  051%=      5-min Rain = 0
KOD1 190057Z 32021KT 15/05 A2961 RMK A01 T01450046  RH  052%=      5-min Rain = 0
KOD1 190058Z 33016KT 14/05 A2961 RMK A01 T01420046  RH  052%=      5-min Rain = 0
KOD1 190059Z 33016G22KT 14/05 A2961 RMK A01 T01380045  RH  053%=      5-min Rain = 0
KOD1 190100Z 33022KT 14/04 A2961 RMK A01 T01350042  RH  053%=      5-min Rain = 0
KOD1 190101Z 33021G26KT 13/04 A2961 RMK A01 T01320039  RH  053%=      5-min Rain = 0
KOD1 190102Z 33023G28KT 13/04 A2961 RMK A01 T01280037  RH  054%=      5-min Rain = 0
KOD1 190103Z 33022G27KT 13/04 A2961 RMK A01 T01250036  RH  055%=      5-min Rain = 0
KOD1 190104Z 33021G27KT 12/04 A2961 RMK A01 T01230035  RH  055%=      5-min Rain = 0
KOD1 190105Z 33021KT 12/04 A2962 RMK A01 T01210035  RH  056%=      5-min Rain = 0
KOD1 190106Z 33021KT 12/04 A2962 RMK A01 T01190035  RH  056%=      5-min Rain = 0
KOD1 190107Z 33022KT 12/04 A2962 RMK A01 T01180035  RH  057%=      5-min Rain = 0
KOD1 190108Z 33025KT 12/04 A2961 RMK A01 T01170035  RH  057%=      5-min Rain = 0
KOD1 190109Z 33022G27KT 12/04 A2961 RMK A01 T01160035  RH  057%=      5-min Rain = 0
KOD1 190110Z 34021G26KT 12/04 A2961 RMK A01 T01150035  RH  058%=      5-min Rain = 0
KOD1 190111Z 33018G23KT 11/04 A2962 RMK A01 T01140035  RH  058%=      5-min Rain = 0
KOD1 190112Z 33021KT 11/04 A2962 RMK A01 T01130035  RH  059%=      5-min Rain = 0
KOD1 190113Z 33017KT 11/04 A2962 RMK A01 T01120035  RH  059%=      5-min Rain = 0
KOD1 190114Z 33022G27KT 11/04 A2962 RMK A01 T01110035  RH  059%=      5-min Rain = 0
KOD1 190115Z 33018G23KT 11/04 A2962 RMK A01 T01110036  RH  060%=      5-min Rain = 0
KOD1 190116Z 34017KT 11/04 A2962 RMK A01 T01100036  RH  060%=      5-min Rain = 0
KOD1 190117Z 33015KT 11/04 A2962 RMK A01 T01090036  RH  061%=      5-min Rain = 0
KOD1 190118Z 33019KT 11/04 A2962 RMK A01 T01080036  RH  061%=      5-min Rain = 0
KOD1 190119Z 34017G26KT 11/04 A2962 RMK A01 T01080036  RH  061%=      5-min Rain = 0
KOD1 190120Z 34019KT 11/04 A2962 RMK A01 T01080036  RH  061%=      5-min Rain = 0
KOD1 190121Z 34019KT 11/04 A2963 RMK A01 T01070036  RH  062%=      5-min Rain = 0
KOD1 190122Z 34014KT 11/04 A2963 RMK A01 T01070036  RH  062%=      5-min Rain = 0
KOD1 190123Z 33020KT 11/04 A2963 RMK A01 T01070037  RH  062%=      5-min Rain = 0
KOD1 190124Z 34021G26KT 11/04 A2963 RMK A01 T01060037  RH  062%=      5-min Rain = 0
KOD1 190125Z 33022G28KT 11/04 A2963 RMK A01 T01060037  RH  062%=      5-min Rain = 0
KOD1 190126Z 33020G25KT 11/04 A2964 RMK A01 T01060037  RH  062%=      5-min Rain = 0
KOD1 190127Z 32018G23KT 11/04 A2965 RMK A01 T01060037  RH  062%=      5-min Rain = 0
KOD1 190128Z 31019G24KT 11/04 A2966 RMK A01 T01050037  RH  063%=      5-min Rain = 0
KOD1 190129Z 30022G27KT 11/04 A2966 RMK A01 T01050036  RH  063%=      5-min Rain = 0
KOD1 190130Z 30020KT 10/04 A2966 RMK A01 T01040036  RH  063%=      5-min Rain = 0
KOD1 190131Z 31019G25KT 10/04 A2966 RMK A01 T01040036  RH  063%=      5-min Rain = 0
KOD1 190132Z 32015KT 10/04 A2966 RMK A01 T01030036  RH  063%=      5-min Rain = 0
KOD1 190133Z 33017G24KT 10/04 A2966 RMK A01 T01020036  RH  063%=      5-min Rain = 0
KOD1 190134Z 33020G26KT 10/04 A2965 RMK A01 T01020036  RH  063%=      5-min Rain = 0
KOD1 190135Z 32021KT 10/04 A2966 RMK A01 T01020035  RH  063%=      5-min Rain = 0
KOD1 190136Z 32018KT 10/04 A2966 RMK A01 T01020035  RH  063%=      5-min Rain = 0
KOD1 190137Z 33016G21KT 10/04 A2966 RMK A01 T01020036  RH  063%=      5-min Rain = 0
KOD1 190138Z 33015G21KT 10/04 A2966 RMK A01 T01010036  RH  064%=      5-min Rain = 0
KOD1 190139Z 33019KT 10/04 A2966 RMK A01 T01010036  RH  064%=      5-min Rain = 0
KOD1 190140Z 33019KT 10/04 A2965 RMK A01 T01010036  RH  064%=      5-min Rain = 0
KOD1 190141Z 33017G22KT 10/04 A2965 RMK A01 T01010036  RH  064%=      5-min Rain = 0
KOD1 190142Z 33020G25KT 10/04 A2965 RMK A01 T01000037  RH  065%=      5-min Rain = 0
KOD1 190143Z 33018G23KT 10/04 A2965 RMK A01 T01000037  RH  065%=      5-min Rain = 0
KOD1 190144Z 34019G24KT 10/04 A2965 RMK A01 T01000037  RH  065%=      5-min Rain = 0
KOD1 190145Z 34018G23KT 10/04 A2965 RMK A01 T01000037  RH  065%=      5-min Rain = 0
KOD1 190146Z 33023KT 10/04 A2965 RMK A01 T01000038  RH  065%=      5-min Rain = 0
KOD1 190147Z 33022KT 10/04 A2965 RMK A01 T01000038  RH  065%=      5-min Rain = 0
KOD1 190148Z 33019KT 10/04 A2965 RMK A01 T01000038  RH  065%=      5-min Rain = 0
KOD1 190149Z 32016KT 10/04 A2966 RMK A01 T00990038  RH  066%=      5-min Rain = 0
KOD1 190150Z 33018KT 10/04 A2966 RMK A01 T00990038  RH  066%=      5-min Rain = 0
KOD1 190151Z 33019KT 10/04 A2966 RMK A01 T00980038  RH  066%=      5-min Rain = 0
KOD1 190152Z 33020KT 10/04 A2966 RMK A01 T00980039  RH  067%=      5-min Rain = 0
KOD1 190153Z 33018KT 10/04 A2966 RMK A01 T00980039  RH  067%=      5-min Rain = 0
KOD1 190154Z 33020G25KT 10/04 A2966 RMK A01 T00970039  RH  067%=      5-min Rain = 0
KOD1 190155Z 33021KT 10/04 A2966 RMK A01 T00970040  RH  067%=      5-min Rain = 0
KOD1 190156Z 33020KT 10/04 A2966 RMK A01 T00970040  RH  067%=      5-min Rain = 0
KOD1 190157Z 33019G24KT 10/04 A2967 RMK A01 T00970040  RH  068%=      5-min Rain = 0
KOD1 190158Z 33021KT 10/04 A2967 RMK A01 T00970040  RH  068%=      5-min Rain = 0
KOD1 190159Z 33018KT 10/04 A2967 RMK A01 T00960040  RH  068%=      5-min Rain = 0
KOD1 190200Z 34019KT 10/04 A2967 RMK A01 T00960040  RH  068%=      5-min Rain = 0
KOD1 190201Z 33017KT 10/04 A2967 RMK A01 T00960040  RH  068%=      5-min Rain = 0
KOD1 190202Z 33019KT 10/04 A2967 RMK A01 T00950040  RH  069%=      5-min Rain = 0
KOD1 190203Z 33019KT 10/04 A2967 RMK A01 T00950040  RH  069%=      5-min Rain = 0
KOD1 190204Z 33021KT 10/04 A2967 RMK A01 T00950041  RH  069%=      5-min Rain = 0
KOD1 190205Z 33018KT 09/04 A2968 RMK A01 T00940041  RH  069%=      5-min Rain = 0
KOD1 190206Z 33015KT 09/04 A2968 RMK A01 T00940040  RH  069%=      5-min Rain = 0
KOD1 190207Z 33016KT 09/04 A2968 RMK A01 T00930041  RH  070%=      5-min Rain = 0
KOD1 190208Z 33019KT 09/04 A2968 RMK A01 T00930041  RH  070%=      5-min Rain = 0
KOD1 190209Z 33019G24KT 09/04 A2968 RMK A01 T00930041  RH  070%=      5-min Rain = 0
KOD1 190210Z 33018G23KT 09/04 A2968 RMK A01 T00920042  RH  070%=      5-min Rain = 0
KOD1 190211Z 33018KT 09/04 A2968 RMK A01 T00920042  RH  071%=      5-min Rain = 0
KOD1 190212Z 33019KT 09/04 A2968 RMK A01 T00920042  RH  071%=      5-min Rain = 0
KOD1 190213Z 33018KT 09/04 A2968 RMK A01 T00920042  RH  071%=      5-min Rain = 0
KOD1 190214Z 33020KT 09/04 A2968 RMK A01 T00910042  RH  071%=      5-min Rain = 0
KOD1 190215Z 33018KT 09/04 A2969 RMK A01 T00910042  RH  071%=      5-min Rain = 0
KOD1 190216Z 33018KT 09/04 A2969 RMK A01 T00910042  RH  072%=      5-min Rain = 0
KOD1 190217Z 34016KT 09/04 A2969 RMK A01 T00900042  RH  072%=      5-min Rain = 0
KOD1 190218Z 33014KT 09/04 A2969 RMK A01 T00900042  RH  072%=      5-min Rain = 0
KOD1 190219Z 33017G22KT 09/04 A2969 RMK A01 T00890042  RH  072%=      5-min Rain = 0
KOD1 190220Z 33018G23KT 09/04 A2969 RMK A01 T00890042  RH  072%=      5-min Rain = 0
KOD1 190221Z 33017KT 09/04 A2969 RMK A01 T00890042  RH  073%=      5-min Rain = 0
KOD1 190222Z 33018KT 09/04 A2969 RMK A01 T00890043  RH  073%=      5-min Rain = 0
KOD1 190223Z 33020KT 09/04 A2969 RMK A01 T00890043  RH  073%=      5-min Rain = 0
KOD1 190224Z 33019KT 09/04 A2969 RMK A01 T00890043  RH  073%=      5-min Rain = 0
KOD1 190225Z 33015G21KT 09/04 A297 RMK A01 T00890043  RH  073%=      5-min Rain = 0
KOD1 190226Z 33020KT 09/04 A297 RMK A01 T00880043  RH  073%=      5-min Rain = 0
KOD1 190227Z 33020KT 09/04 A297 RMK A01 T00880043  RH  073%=      5-min Rain = 0
KOD1 190228Z 33020KT 09/04 A297 RMK A01 T00880043  RH  073%=      5-min Rain = 0
KOD1 190229Z 33019G25KT 09/04 A297 RMK A01 T00880043  RH  073%=      5-min Rain = 0
KOD1 190230Z 33021KT 09/04 A297 RMK A01 T00880043  RH  074%=      5-min Rain = 0
KOD1 190231Z 33019G25KT 09/04 A2971 RMK A01 T00880043  RH  074%=      5-min Rain = 0
KOD1 190232Z 33019G26KT 09/04 A2971 RMK A01 T00870044  RH  074%=      5-min Rain = 0
KOD1 190233Z 34023KT 09/04 A2971 RMK A01 T00880044  RH  074%=      5-min Rain = 0
KOD1 190234Z 34021G26KT 09/04 A2971 RMK A01 T00880043  RH  074%=      5-min Rain = 0
KOD1 190235Z 34026G31KT 09/04 A2971 RMK A01 T00880043  RH  074%=      5-min Rain = 0
KOD1 190236Z 34027KT 09/04 A2971 RMK A01 T00880043  RH  073%=      5-min Rain = 0
KOD1 190237Z 34022G30KT 09/04 A2972 RMK A01 T00880043  RH  073%=      5-min Rain = 0
KOD1 190238Z 34020G27KT 09/04 A2972 RMK A01 T00880043  RH  073%=      5-min Rain = 0
KOD1 190239Z 34018KT 09/04 A2972 RMK A01 T00870043  RH  074%=      5-min Rain = 0
KOD1 190240Z 34017G22KT 09/04 A2972 RMK A01 T00870043  RH  074%=      5-min Rain = 0
KOD1 190241Z 34019G25KT 09/04 A2972 RMK A01 T00870043  RH  074%=      5-min Rain = 0
KOD1 190242Z 33021G27KT 09/04 A2972 RMK A01 T00860043  RH  074%=      5-min Rain = 0
KOD1 190243Z 34023G29KT 09/04 A2972 RMK A01 T00860043  RH  074%=      5-min Rain = 0
KOD1 190244Z 34017G22KT 09/04 A2973 RMK A01 T00860043  RH  074%=      5-min Rain = 0
KOD1 190245Z 33021G26KT 09/04 A2973 RMK A01 T00850043  RH  075%=      5-min Rain = 0
KOD1 190246Z 33023KT 09/04 A2973 RMK A01 T00850043  RH  075%=      5-min Rain = 0
KOD1 190247Z 33023G28KT 09/04 A2973 RMK A01 T00850042  RH  075%=      5-min Rain = 0
KOD1 190248Z 33020KT 09/04 A2973 RMK A01 T00850042  RH  075%=      5-min Rain = 0
KOD1 190249Z 34020G26KT 09/04 A2974 RMK A01 T00850042  RH  075%=      5-min Rain = 0
KOD1 190250Z 33016KT 09/04 A2974 RMK A01 T00850042  RH  075%=      5-min Rain = 0
KOD1 190251Z 33014KT 08/04 A2974 RMK A01 T00840042  RH  075%=      5-min Rain = 0
KOD1 190252Z 33019KT 08/04 A2974 RMK A01 T00840042  RH  075%=      5-min Rain = 0
KOD1 190253Z 33022KT 08/04 A2974 RMK A01 T00840041  RH  074%=      5-min Rain = 0
KOD1 190254Z 33020KT 08/04 A2974 RMK A01 T00840041  RH  074%=      5-min Rain = 0
KOD1 190255Z 33022KT 08/04 A2974 RMK A01 T00830040  RH  074%=      5-min Rain = 0
KOD1 190256Z 33019KT 08/04 A2975 RMK A01 T00830040  RH  074%=      5-min Rain = 0
KOD1 190257Z 33023KT 08/04 A2974 RMK A01 T00830040  RH  074%=      5-min Rain = 0
KOD1 190258Z 34019KT 08/04 A2975 RMK A01 T00830039  RH  074%=      5-min Rain = 0
KOD1 190259Z 33022G29KT 08/04 A2975 RMK A01 T00830040  RH  074%=      5-min Rain = 0
KOD1 190300Z 34022KT 08/04 A2975 RMK A01 T00820039  RH  074%=      5-min Rain = 0
KOD1 190301Z 33024G29KT 08/04 A2975 RMK A01 T00820039  RH  074%=      5-min Rain = 0
KOD1 190302Z 34024G30KT 08/04 A2975 RMK A01 T00820039  RH  074%=      5-min Rain = 0
KOD1 190303Z 33020KT 08/04 A2975 RMK A01 T00820039  RH  074%=      5-min Rain = 0
KOD1 190304Z 33022KT 08/04 A2975 RMK A01 T00820039  RH  075%=      5-min Rain = 0
KOD1 190305Z 33016KT 08/04 A2975 RMK A01 T00820040  RH  075%=      5-min Rain = 0
KOD1 190306Z 33019KT 08/04 A2975 RMK A01 T00810040  RH  075%=      5-min Rain = 0
KOD1 190307Z 33020KT 08/04 A2975 RMK A01 T00810040  RH  075%=      5-min Rain = 0
KOD1 190308Z 33020G26KT 08/04 A2975 RMK A01 T00810039  RH  075%=      5-min Rain = 0
KOD1 190309Z 34019KT 08/04 A2976 RMK A01 T00810039  RH  075%=      5-min Rain = 0
KOD1 190310Z 33019G24KT 08/04 A2976 RMK A01 T00810039  RH  075%=      5-min Rain = 0
KOD1 190311Z 34021KT 08/04 A2976 RMK A01 T00810039  RH  075%=      5-min Rain = 0
KOD1 190312Z 34020KT 08/04 A2976 RMK A01 T00810039  RH  075%=      5-min Rain = 0
KOD1 190313Z 34021KT 08/04 A2976 RMK A01 T00810039  RH  075%=      5-min Rain = 0
KOD1 190314Z 34022KT 08/04 A2976 RMK A01 T00810039  RH  075%=      5-min Rain = 0
KOD1 190315Z 33021G32KT 08/04 A2976 RMK A01 T00810039  RH  075%=      5-min Rain = 0
KOD1 190316Z 34025KT 08/04 A2976 RMK A01 T00810038  RH  074%=      5-min Rain = 0
KOD1 190317Z 33020G26KT 08/04 A2976 RMK A01 T00810038  RH  074%=      5-min Rain = 0
KOD1 190318Z 33022KT 08/04 A2976 RMK A01 T00810038  RH  075%=      5-min Rain = 0
KOD1 190319Z 33019G24KT 08/04 A2976 RMK A01 T00810038  RH  075%=      5-min Rain = 0
KOD1 190320Z 33022G29KT 08/04 A2976 RMK A01 T00810038  RH  074%=      5-min Rain = 0
KOD1 190321Z 33023KT 08/04 A2976 RMK A01 T00810038  RH  074%=      5-min Rain = 0
KOD1 190322Z 34022KT 08/04 A2977 RMK A01 T00810038  RH  074%=      5-min Rain = 0
KOD1 190323Z 33019KT 08/04 A2977 RMK A01 T00810038  RH  074%=      5-min Rain = 0
KOD1 190324Z 33017G22KT 08/04 A2977 RMK A01 T00810038  RH  075%=      5-min Rain = 0
KOD1 190325Z 34019KT 08/04 A2977 RMK A01 T00810038  RH  075%=      5-min Rain = 0
KOD1 190326Z 33023G28KT 08/04 A2977 RMK A01 T00810038  RH  074%=      5-min Rain = 0
KOD1 190327Z 34025G30KT 08/04 A2977 RMK A01 T00810038  RH  074%=      5-min Rain = 0
KOD1 190328Z 34023KT 08/04 A2977 RMK A01 T00810037  RH  074%=      5-min Rain = 0
KOD1 190329Z 34022KT 08/04 A2977 RMK A01 T00810038  RH  074%=      5-min Rain = 0
KOD1 190330Z 33022KT 08/04 A2977 RMK A01 T00810038  RH  074%=      5-min Rain = 0
KOD1 190331Z 34023KT 08/04 A2977 RMK A01 T00800038  RH  074%=      5-min Rain = 0
KOD1 190332Z 34017G22KT 08/04 A2977 RMK A01 T00800038  RH  075%=      5-min Rain = 0
KOD1 190333Z 33019G24KT 08/04 A2978 RMK A01 T00800038  RH  075%=      5-min Rain = 0
KOD1 190334Z 33024KT 08/04 A2978 RMK A01 T00800038  RH  075%=      5-min Rain = 0
KOD1 190335Z 33021KT 08/04 A2978 RMK A01 T00800038  RH  075%=      5-min Rain = 0
KOD1 190336Z 33025G31KT 08/04 A2978 RMK A01 T00790037  RH  075%=      5-min Rain = 0
KOD1 190337Z 33023G28KT 08/04 A2978 RMK A01 T00790037  RH  075%=      5-min Rain = 0
KOD1 190338Z 33023G30KT 08/04 A2978 RMK A01 T00780036  RH  075%=      5-min Rain = 0
KOD1 190339Z 33029G35KT 08/03 A2978 RMK A01 T00760034  RH  075%=      5-min Rain = 0
KOD1 190340Z 33026G35KT 08/03 A2978 RMK A01 T00750034  RH  075%=      5-min Rain = 0
KOD1 190341Z 33028G34KT 07/03 A2978 RMK A01 T00740033  RH  075%=      5-min Rain = 0
KOD1 190342Z 33026KT 07/03 A2978 RMK A01 T00730032  RH  076%=      5-min Rain = 0
KOD1 190343Z 34026G32KT 07/03 A2978 RMK A01 T00720032  RH  076%=      5-min Rain = 0
KOD1 190344Z 34031KT 07/03 A2979 RMK A01 T00710031  RH  076%=      5-min Rain = 0
KOD1 190345Z 34030KT 07/03 A2979 RMK A01 T00710031  RH  076%=      5-min Rain = 0
KOD1 190346Z 34023G28KT 07/03 A2979 RMK A01 T00700031  RH  076%=      5-min Rain = 0
KOD1 190347Z 33025G32KT 07/03 A2979 RMK A01 T00700031  RH  076%=      5-min Rain = 0
KOD1 190348Z 34027G32KT 07/03 A2979 RMK A01 T00700031  RH  076%=      5-min Rain = 0
KOD1 190349Z 34026G31KT 07/03 A2979 RMK A01 T00690030  RH  076%=      5-min Rain = 0
KOD1 190350Z 34022G27KT 07/03 A2979 RMK A01 T00690030  RH  076%=      5-min Rain = 0
KOD1 190351Z 35024G29KT 07/03 A2979 RMK A01 T00690030  RH  076%=      5-min Rain = 0
KOD1 190352Z 34024G29KT 07/03 A298 RMK A01 T00690030  RH  076%=      5-min Rain = 0
KOD1 190353Z 34022G29KT 07/03 A298 RMK A01 T00690030  RH  076%=      5-min Rain = 0
KOD1 190354Z 35028KT 07/03 A298 RMK A01 T00680030  RH  076%=      5-min Rain = 0
KOD1 190355Z 35022G27KT 07/03 A298 RMK A01 T00680030  RH  076%=      5-min Rain = 0
KOD1 190356Z 34018G23KT 07/03 A298 RMK A01 T00680030  RH  076%=      5-min Rain = 0
KOD1 190357Z 33025KT 07/03 A298 RMK A01 T00670026  RH  075%=      5-min Rain = 0
KOD1 190358Z 34027KT 07/03 A298 RMK A01 T00660025  RH  075%=      5-min Rain = 0
KOD1 190359Z 33029KT 07/02 A298 RMK A01 T00650023  RH  075%=      5-min Rain = 0
KOD1 190400Z 34026G31KT 06/02 A298 RMK A01 T00640023  RH  075%=      5-min Rain = 0
KOD1 190401Z 34020KT 06/02 A298 RMK A01 T00630023  RH  075%=      5-min Rain = 0
KOD1 190402Z 34024G32KT 06/02 A298 RMK A01 T00630022  RH  075%=      5-min Rain = 0
KOD1 190403Z 33026G33KT 06/02 A298 RMK A01 T00620022  RH  075%=      5-min Rain = 0
KOD1 190404Z 34026KT 06/02 A2981 RMK A01 T00620021  RH  075%=      5-min Rain = 0
KOD1 190405Z 34023KT 06/02 A2981 RMK A01 T00620021  RH  075%=      5-min Rain = 0
KOD1 190406Z 34019G24KT 06/02 A2981 RMK A01 T00610021  RH  075%=      5-min Rain = 0
KOD1 190407Z 34021G26KT 06/02 A2981 RMK A01 T00610021  RH  075%=      5-min Rain = 0
KOD1 190408Z 34023G33KT 06/02 A2981 RMK A01 T00610021  RH  075%=      5-min Rain = 0
KOD1 190409Z 34025G31KT 06/02 A2981 RMK A01 T00610020  RH  075%=      5-min Rain = 0
KOD1 190410Z 35029G34KT 06/02 A2981 RMK A01 T00610019  RH  075%=      5-min Rain = 0
KOD1 190411Z 34027KT 06/02 A2981 RMK A01 T00610019  RH  075%=      5-min Rain = 0
KOD1 190412Z 35027G33KT 06/02 A2981 RMK A01 T00610019  RH  074%=      5-min Rain = 0
KOD1 190413Z 35024G29KT 06/02 A2982 RMK A01 T00610018  RH  074%=      5-min Rain = 0
KOD1 190414Z 35024G30KT 06/02 A2982 RMK A01 T00600018  RH  074%=      5-min Rain = 0
KOD1 190415Z 34021G28KT 06/02 A2982 RMK A01 T00600019  RH  075%=      5-min Rain = 0
KOD1 190416Z 34024G29KT 06/02 A2982 RMK A01 T00600018  RH  074%=      5-min Rain = 0
KOD1 190417Z 34022G29KT 06/02 A2982 RMK A01 T00600018  RH  074%=      5-min Rain = 0
KOD1 190418Z 34025G30KT 06/02 A2982 RMK A01 T00590017  RH  074%=      5-min Rain = 0
KOD1 190419Z 34029KT 06/02 A2982 RMK A01 T00590016  RH  074%=      5-min Rain = 0
KOD1 190420Z 34025G31KT 06/02 A2982 RMK A01 T00590016  RH  074%=      5-min Rain = 0
KOD1 190421Z 34024G30KT 06/02 A2982 RMK A01 T00580017  RH  074%=      5-min Rain = 0
KOD1 190422Z 34028KT 06/02 A2982 RMK A01 T00580016  RH  074%=      5-min Rain = 0
KOD1 190423Z 34025G31KT 06/02 A2982 RMK A01 T00580016  RH  074%=      5-min Rain = 0
KOD1 190424Z 34024G30KT 06/02 A2983 RMK A01 T00580016  RH  074%=      5-min Rain = 0
KOD1 190425Z 34028G34KT 06/02 A2982 RMK A01 T00580015  RH  074%=      5-min Rain = 0
KOD1 190426Z 34030G35KT 06/01 A2982 RMK A01 T00570014  RH  074%=      5-min Rain = 0
KOD1 190427Z 34027KT 06/01 A2983 RMK A01 T00570014  RH  074%=      5-min Rain = 0
KOD1 190428Z 34030KT 06/01 A2983 RMK A01 T00560014  RH  074%=      5-min Rain = 0
KOD1 190429Z 34026G35KT 06/01 A2983 RMK A01 T00560014  RH  074%=      5-min Rain = 0
KOD1 190430Z 34024G31KT 06/01 A2983 RMK A01 T00560014  RH  074%=      5-min Rain = 0
KOD1 190431Z 34022KT 06/01 A2983 RMK A01 T00550014  RH  074%=      5-min Rain = 0
KOD1 190432Z 34022G31KT 06/01 A2983 RMK A01 T00550014  RH  075%=      5-min Rain = 0
KOD1 190433Z 34024KT 06/01 A2983 RMK A01 T00550014  RH  075%=      5-min Rain = 0
KOD1 190434Z 34023KT 05/01 A2983 RMK A01 T00540014  RH  075%=      5-min Rain = 0
KOD1 190435Z 34024KT 05/01 A2983 RMK A01 T00540013  RH  075%=      5-min Rain = 0
KOD1 190436Z 34025G30KT 05/01 A2983 RMK A01 T00540013  RH  075%=      5-min Rain = 0
KOD1 190437Z 34021G27KT 05/01 A2984 RMK A01 T00530012  RH  075%=      5-min Rain = 0
KOD1 190438Z 34024G29KT 05/01 A2984 RMK A01 T00530012  RH  075%=      5-min Rain = 0
KOD1 190439Z 34021KT 05/01 A2984 RMK A01 T00520012  RH  075%=      5-min Rain = 0
KOD1 190440Z 34023KT 05/01 A2984 RMK A01 T00520012  RH  075%=      5-min Rain = 0
KOD1 190441Z 34024G30KT 05/01 A2984 RMK A01 T00510012  RH  076%=      5-min Rain = 0
KOD1 190442Z 34022KT 05/01 A2984 RMK A01 T00510012  RH  076%=      5-min Rain = 0
KOD1 190443Z 34023G29KT 05/01 A2984 RMK A01 T00510012  RH  076%=      5-min Rain = 0
KOD1 190444Z 34024G29KT 05/01 A2984 RMK A01 T00500011  RH  076%=      5-min Rain = 0
KOD1 190445Z 34021G27KT 05/01 A2984 RMK A01 T00500012  RH  076%=      5-min Rain = 0
KOD1 190446Z 35024KT 05/01 A2984 RMK A01 T00500011  RH  076%=      5-min Rain = 0
KOD1 190447Z 34021G26KT 05/01 A2985 RMK A01 T00500012  RH  076%=      5-min Rain = 0
KOD1 190448Z 34021KT 05/01 A2985 RMK A01 T00500012  RH  076%=      5-min Rain = 0
KOD1 190449Z 35020G29KT 05/01 A2985 RMK A01 T00500012  RH  076%=      5-min Rain = 0
KOD1 190450Z 34023G28KT 05/01 A2985 RMK A01 T00500012  RH  076%=      5-min Rain = 0
KOD1 190451Z 34024G29KT 05/01 A2985 RMK A01 T00500011  RH  076%=      5-min Rain = 0
KOD1 190452Z 34024G29KT 05/01 A2985 RMK A01 T00500011  RH  076%=      5-min Rain = 0
KOD1 190453Z 35024KT 05/01 A2985 RMK A01 T00500011  RH  076%=      5-min Rain = 0
KOD1 190454Z 35024G29KT 05/01 A2985 RMK A01 T00500011  RH  076%=      5-min Rain = 0
KOD1 190455Z 35024G31KT 05/01 A2986 RMK A01 T00500011  RH  076%=      5-min Rain = 0
KOD1 190456Z 34023G32KT 05/01 A2986 RMK A01 T00500010  RH  076%=      5-min Rain = 0
KOD1 190457Z 35025G30KT 05/01 A2986 RMK A01 T00500009  RH  075%=      5-min Rain = 0
KOD1 190458Z 35023G28KT 05/01 A2986 RMK A01 T00490009  RH  075%=      5-min Rain = 0
KOD1 190459Z 34024G32KT 05/01 A2986 RMK A01 T00490009  RH  075%=      5-min Rain = 0
KOD1 190500Z 35025G31KT 05/01 A2986 RMK A01 T00490007  RH  074%=      5-min Rain = 0
KOD1 190501Z 35022G28KT 05/01 A2986 RMK A01 T00490007  RH  074%=      5-min Rain = 0
KOD1 190502Z 35025G32KT 05/01 A2986 RMK A01 T00490006  RH  074%=      5-min Rain = 0
KOD1 190503Z 35023KT 05/01 A2987 RMK A01 T00490006  RH  074%=      5-min Rain = 0
KOD1 190504Z 34024KT 05/01 A2987 RMK A01 T00490006  RH  074%=      5-min Rain = 0
KOD1 190505Z 34028G33KT 05/01 A2987 RMK A01 T00490005  RH  073%=      5-min Rain = 0
KOD1 190506Z 34025KT 05/00 A2987 RMK A01 T00480004  RH  073%=      5-min Rain = 0
KOD1 190507Z 34028G37KT 05/00 A2987 RMK A01 T00480003  RH  073%=      5-min Rain = 0
KOD1 190508Z 35029G36KT 05/00 A2987 RMK A01 T00480003  RH  073%=      5-min Rain = 0
KOD1 190509Z 35030KT 05/00 A2987 RMK A01 T00480002  RH  072%=      5-min Rain = 0
KOD1 190510Z 34032G38KT 05/00 A2987 RMK A01 T00480001  RH  072%=      5-min Rain = 0
KOD1 190511Z 35031KT 05/00 A2987 RMK A01 T00470000  RH  072%=      5-min Rain = 0
KOD1 190512Z 35033G40KT 05/00 A2987 RMK A01 T004700-0  RH  071%=      5-min Rain = 0
KOD1 190513Z 36030G36KT 05/00 A2988 RMK A01 T00470000  RH  072%=      5-min Rain = 0
KOD1 190514Z 35031G40KT 05/00 A2988 RMK A01 T00470000  RH  072%=      5-min Rain = 0
KOD1 190515Z 00031G38KT 05/00 A2988 RMK A01 T004600-0  RH  072%=      5-min Rain = 0
KOD1 190516Z 36029G35KT 05/00 A2988 RMK A01 T00460000  RH  072%=      5-min Rain = 0
KOD1 190517Z 36030KT 05/00 A2989 RMK A01 T00460000  RH  072%=      5-min Rain = 0
KOD1 190518Z 36025G30KT 05/00 A2989 RMK A01 T00460001  RH  072%=      5-min Rain = 0
KOD1 190519Z 35024KT 05/00 A2989 RMK A01 T00460001  RH  072%=      5-min Rain = 0
KOD1 190520Z 35027G32KT 05/00 A2989 RMK A01 T00460000  RH  072%=      5-min Rain = 0
KOD1 190521Z 36023G31KT 05/00 A2989 RMK A01 T00460001  RH  072%=      5-min Rain = 0
KOD1 190522Z 35026G31KT 05/00 A2989 RMK A01 T00460000  RH  072%=      5-min Rain = 0
KOD1 190523Z 35022KT 05/00 A2989 RMK A01 T00460001  RH  072%=      5-min Rain = 0
KOD1 190524Z 34018G23KT 05/00 A2989 RMK A01 T00460002  RH  073%=      5-min Rain = 0
KOD1 190525Z 34019KT 05/00 A299 RMK A01 T00460002  RH  073%=      5-min Rain = 0
KOD1 190526Z 35032G38KT 05/00 A299 RMK A01 T00460000  RH  072%=      5-min Rain = 0
KOD1 190527Z 35026G32KT 05/00 A299 RMK A01 T00460001  RH  073%=      5-min Rain = 0
KOD1 190528Z 35020KT 05/00 A299 RMK A01 T00460001  RH  073%=      5-min Rain = 0
KOD1 190529Z 35022G29KT 05/00 A299 RMK A01 T00450001  RH  073%=      5-min Rain = 0
KOD1 190530Z 35024G29KT 05/00 A299 RMK A01 T00450000  RH  073%=      5-min Rain = 0
KOD1 190531Z 35024KT 05/00 A299 RMK A01 T00450000  RH  073%=      5-min Rain = 0
KOD1 190532Z 35024G30KT 05/00 A2991 RMK A01 T00450001  RH  073%=      5-min Rain = 0
KOD1 190533Z 35020KT 04/00 A2991 RMK A01 T00440002  RH  074%=      5-min Rain = 0
KOD1 190534Z 34019G26KT 04/00 A2991 RMK A01 T00440003  RH  074%=      5-min Rain = 0
KOD1 190535Z 34022G28KT 04/00 A2991 RMK A01 T00430003  RH  075%=      5-min Rain = 0
KOD1 190536Z 35022KT 04/00 A2991 RMK A01 T00420004  RH  076%=      5-min Rain = 0
KOD1 190537Z 35023KT 04/00 A2991 RMK A01 T00410004  RH  076%=      5-min Rain = 0
KOD1 190538Z 34022G29KT 04/00 A2991 RMK A01 T00410004  RH  077%=      5-min Rain = 0
KOD1 190539Z 35024KT 04/00 A2991 RMK A01 T00400003  RH  077%=      5-min Rain = 0
KOD1 190540Z 35023G29KT 04/00 A2992 RMK A01 T00400003  RH  076%=      5-min Rain = 0
KOD1 190541Z 35021G27KT 04/00 A2992 RMK A01 T00400004  RH  077%=      5-min Rain = 0
KOD1 190542Z 35020KT 04/00 A2992 RMK A01 T00400003  RH  077%=      5-min Rain = 0
KOD1 190543Z 34019G24KT 04/00 A2992 RMK A01 T00400003  RH  077%=      5-min Rain = 0
KOD1 190544Z 34017KT 04/00 A2992 RMK A01 T00400004  RH  077%=      5-min Rain = 0
KOD1 190545Z 34016G21KT 04/00 A2992 RMK A01 T00400004  RH  077%=      5-min Rain = 0
KOD1 190546Z 34020G26KT 04/00 A2992 RMK A01 T00400003  RH  077%=      5-min Rain = 0
KOD1 190547Z 34025G30KT 04/00 A2992 RMK A01 T004000-0  RH  075%=      5-min Rain = 0
KOD1 190548Z 34019KT 04/00 A2992 RMK A01 T00400001  RH  076%=      5-min Rain = 0
KOD1 190549Z 33022KT 04/00 A2992 RMK A01 T00400001  RH  076%=      5-min Rain = 0
KOD1 190550Z 33023G28KT 04/00 A2992 RMK A01 T003900-0  RH  075%=      5-min Rain = 0
KOD1 190551Z 34024G29KT 04/M00 A2992 RMK A01 T00391001  RH  075%=      5-min Rain = 0
KOD1 190552Z 34021G28KT 04/M00 A2992 RMK A01 T00381001  RH  075%=      5-min Rain = 0
KOD1 190553Z 33026G32KT 04/M00 A2992 RMK A01 T00381002  RH  075%=      5-min Rain = 0
KOD1 190554Z 34024G29KT 04/M00 A2992 RMK A01 T00371002  RH  075%=      5-min Rain = 0
KOD1 190555Z 33025G30KT 04/M00 A2993 RMK A01 T00371003  RH  075%=      5-min Rain = 0
KOD1 190556Z 33023KT 04/M00 A2992 RMK A01 T00361003  RH  075%=      5-min Rain = 0
KOD1 190557Z 33022G27KT 04/M00 A2993 RMK A01 T00361003  RH  076%=      5-min Rain = 0
KOD1 190558Z 34024G29KT 04/M00 A2993 RMK A01 T00361003  RH  076%=      5-min Rain = 0
KOD1 190559Z 33028KT 04/M00 A2993 RMK A01 T00351004  RH  075%=      5-min Rain = 0

Page generated in 0.1213 seconds.